<?xml version="1.0" encoding="UTF-8" standalone="no" ?>
<gpx xmlns="http://www.topografix.com/GPX/1/1" xmlns:xsi="http://www.w3.org/2001/XMLSchema-instance" xsi:schemaLocation="http://www.topografix.com/GPX/1/1 http://www.topografix.com/GPX/1/1/gpx.xsd" version="1.1" creator="VisuGPX - https://www.visugpx.com">
  <metadata>
    <name>Sortie du 23-11-15 Tête de combe Rau</name>
    <desc><![CDATA[Distance: 6,8Km
Dénivelé: 300m
Durée: 2H]]></desc>
  </metadata>
  <trk>
    <name><![CDATA[Tracé actuel: 23 NOV 2015 13:53]]></name>
    <trkseg>
      <trkpt lat="44.57894" lon="5.82649">
        <ele>1236.87</ele>
        <time>2015-11-23T12:55:12Z</time>
      </trkpt>
      <trkpt lat="44.57895" lon="5.8265">
        <ele>1233.51</ele>
        <time>2015-11-23T12:55:13Z</time>
      </trkpt>
      <trkpt lat="44.57895" lon="5.8265">
        <ele>1231.59</ele>
        <time>2015-11-23T12:55:15Z</time>
      </trkpt>
      <trkpt lat="44.57896" lon="5.82653">
        <ele>1235.43</ele>
        <time>2015-11-23T12:55:21Z</time>
      </trkpt>
      <trkpt lat="44.57895" lon="5.82653">
        <ele>1235.43</ele>
        <time>2015-11-23T12:55:22Z</time>
      </trkpt>
      <trkpt lat="44.57894" lon="5.82649">
        <ele>1237.35</ele>
        <time>2015-11-23T12:55:27Z</time>
      </trkpt>
      <trkpt lat="44.57893" lon="5.82647">
        <ele>1218.13</ele>
        <time>2015-11-23T12:55:30Z</time>
      </trkpt>
      <trkpt lat="44.57893" lon="5.82647">
        <ele>1238.8</ele>
        <time>2015-11-23T12:55:31Z</time>
      </trkpt>
      <trkpt lat="44.57892" lon="5.82648">
        <ele>1250.81</ele>
        <time>2015-11-23T12:55:33Z</time>
      </trkpt>
      <trkpt lat="44.57893" lon="5.82649">
        <ele>1239.76</ele>
        <time>2015-11-23T12:55:34Z</time>
      </trkpt>
      <trkpt lat="44.57893" lon="5.8265">
        <ele>1233.99</ele>
        <time>2015-11-23T12:55:36Z</time>
      </trkpt>
      <trkpt lat="44.57893" lon="5.8265">
        <ele>1241.68</ele>
        <time>2015-11-23T12:55:37Z</time>
      </trkpt>
      <trkpt lat="44.57892" lon="5.8265">
        <ele>1237.35</ele>
        <time>2015-11-23T12:55:38Z</time>
      </trkpt>
      <trkpt lat="44.57892" lon="5.82651">
        <ele>1233.51</ele>
        <time>2015-11-23T12:55:39Z</time>
      </trkpt>
      <trkpt lat="44.57892" lon="5.82651">
        <ele>1242.16</ele>
        <time>2015-11-23T12:55:40Z</time>
      </trkpt>
      <trkpt lat="44.57893" lon="5.82651">
        <ele>1240.72</ele>
        <time>2015-11-23T12:55:41Z</time>
      </trkpt>
      <trkpt lat="44.57893" lon="5.82652">
        <ele>1248.41</ele>
        <time>2015-11-23T12:55:42Z</time>
      </trkpt>
      <trkpt lat="44.57893" lon="5.82652">
        <ele>1236.87</ele>
        <time>2015-11-23T12:55:43Z</time>
      </trkpt>
      <trkpt lat="44.57893" lon="5.82652">
        <ele>1246.97</ele>
        <time>2015-11-23T12:55:44Z</time>
      </trkpt>
      <trkpt lat="44.57893" lon="5.82652">
        <ele>1241.68</ele>
        <time>2015-11-23T12:55:45Z</time>
      </trkpt>
      <trkpt lat="44.57894" lon="5.82652">
        <ele>1246.49</ele>
        <time>2015-11-23T12:55:47Z</time>
      </trkpt>
      <trkpt lat="44.57894" lon="5.82651">
        <ele>1246.49</ele>
        <time>2015-11-23T12:55:48Z</time>
      </trkpt>
      <trkpt lat="44.57894" lon="5.82651">
        <ele>1241.68</ele>
        <time>2015-11-23T12:55:49Z</time>
      </trkpt>
      <trkpt lat="44.57893" lon="5.8265">
        <ele>1237.83</ele>
        <time>2015-11-23T12:55:51Z</time>
      </trkpt>
      <trkpt lat="44.57893" lon="5.8265">
        <ele>1232.55</ele>
        <time>2015-11-23T12:55:52Z</time>
      </trkpt>
      <trkpt lat="44.57893" lon="5.8265">
        <ele>1242.64</ele>
        <time>2015-11-23T12:55:53Z</time>
      </trkpt>
      <trkpt lat="44.57893" lon="5.8265">
        <ele>1248.89</ele>
        <time>2015-11-23T12:55:54Z</time>
      </trkpt>
      <trkpt lat="44.57893" lon="5.8265">
        <ele>1244.08</ele>
        <time>2015-11-23T12:55:55Z</time>
      </trkpt>
      <trkpt lat="44.57893" lon="5.8265">
        <ele>1234.47</ele>
        <time>2015-11-23T12:55:56Z</time>
      </trkpt>
      <trkpt lat="44.57893" lon="5.8265">
        <ele>1234.47</ele>
        <time>2015-11-23T12:55:57Z</time>
      </trkpt>
      <trkpt lat="44.57892" lon="5.8265">
        <ele>1247.45</ele>
        <time>2015-11-23T12:55:58Z</time>
      </trkpt>
      <trkpt lat="44.57892" lon="5.8265">
        <ele>1245.04</ele>
        <time>2015-11-23T12:55:59Z</time>
      </trkpt>
      <trkpt lat="44.57892" lon="5.8265">
        <ele>1241.68</ele>
        <time>2015-11-23T12:56:00Z</time>
      </trkpt>
      <trkpt lat="44.57892" lon="5.8265">
        <ele>1250.81</ele>
        <time>2015-11-23T12:56:01Z</time>
      </trkpt>
      <trkpt lat="44.57892" lon="5.8265">
        <ele>1241.68</ele>
        <time>2015-11-23T12:56:02Z</time>
      </trkpt>
      <trkpt lat="44.57893" lon="5.82653">
        <ele>1246.01</ele>
        <time>2015-11-23T12:56:07Z</time>
      </trkpt>
      <trkpt lat="44.57893" lon="5.82653">
        <ele>1234.47</ele>
        <time>2015-11-23T12:56:08Z</time>
      </trkpt>
      <trkpt lat="44.57893" lon="5.82653">
        <ele>1246.01</ele>
        <time>2015-11-23T12:56:09Z</time>
      </trkpt>
      <trkpt lat="44.57893" lon="5.82653">
        <ele>1240.72</ele>
        <time>2015-11-23T12:56:13Z</time>
      </trkpt>
      <trkpt lat="44.57893" lon="5.82653">
        <ele>1241.68</ele>
        <time>2015-11-23T12:56:14Z</time>
      </trkpt>
      <trkpt lat="44.57893" lon="5.82653">
        <ele>1246.01</ele>
        <time>2015-11-23T12:56:21Z</time>
      </trkpt>
      <trkpt lat="44.57893" lon="5.82653">
        <ele>1242.16</ele>
        <time>2015-11-23T12:56:22Z</time>
      </trkpt>
      <trkpt lat="44.57893" lon="5.82653">
        <ele>1234.95</ele>
        <time>2015-11-23T12:56:24Z</time>
      </trkpt>
      <trkpt lat="44.57893" lon="5.82653">
        <ele>1216.69</ele>
        <time>2015-11-23T12:56:25Z</time>
      </trkpt>
      <trkpt lat="44.57893" lon="5.82653">
        <ele>1255.14</ele>
        <time>2015-11-23T12:56:26Z</time>
      </trkpt>
      <trkpt lat="44.57894" lon="5.82653">
        <ele>1245.53</ele>
        <time>2015-11-23T12:56:27Z</time>
      </trkpt>
      <trkpt lat="44.57893" lon="5.82654">
        <ele>1242.16</ele>
        <time>2015-11-23T12:56:30Z</time>
      </trkpt>
      <trkpt lat="44.57893" lon="5.82654">
        <ele>1241.68</ele>
        <time>2015-11-23T12:56:32Z</time>
      </trkpt>
      <trkpt lat="44.57893" lon="5.82655">
        <ele>1241.68</ele>
        <time>2015-11-23T12:56:51Z</time>
      </trkpt>
      <trkpt lat="44.57893" lon="5.82655">
        <ele>1242.16</ele>
        <time>2015-11-23T12:57:25Z</time>
      </trkpt>
      <trkpt lat="44.57893" lon="5.82654">
        <ele>1240.72</ele>
        <time>2015-11-23T12:57:49Z</time>
      </trkpt>
      <trkpt lat="44.57894" lon="5.82655">
        <ele>1243.12</ele>
        <time>2015-11-23T12:58:34Z</time>
      </trkpt>
      <trkpt lat="44.57904" lon="5.82665">
        <ele>1242.16</ele>
        <time>2015-11-23T12:58:58Z</time>
      </trkpt>
      <trkpt lat="44.57907" lon="5.8267">
        <ele>1242.16</ele>
        <time>2015-11-23T12:59:04Z</time>
      </trkpt>
      <trkpt lat="44.5791" lon="5.82677">
        <ele>1243.12</ele>
        <time>2015-11-23T12:59:09Z</time>
      </trkpt>
      <trkpt lat="44.57914" lon="5.82683">
        <ele>1243.12</ele>
        <time>2015-11-23T12:59:16Z</time>
      </trkpt>
      <trkpt lat="44.57915" lon="5.82689">
        <ele>1244.08</ele>
        <time>2015-11-23T12:59:21Z</time>
      </trkpt>
      <trkpt lat="44.57916" lon="5.82706">
        <ele>1245.04</ele>
        <time>2015-11-23T12:59:35Z</time>
      </trkpt>
      <trkpt lat="44.57917" lon="5.82725">
        <ele>1246.01</ele>
        <time>2015-11-23T12:59:50Z</time>
      </trkpt>
      <trkpt lat="44.57917" lon="5.82741">
        <ele>1247.45</ele>
        <time>2015-11-23T13:00:03Z</time>
      </trkpt>
      <trkpt lat="44.57914" lon="5.82756">
        <ele>1247.93</ele>
        <time>2015-11-23T13:00:15Z</time>
      </trkpt>
      <trkpt lat="44.5791" lon="5.82772">
        <ele>1250.81</ele>
        <time>2015-11-23T13:00:27Z</time>
      </trkpt>
      <trkpt lat="44.5791" lon="5.82773">
        <ele>1249.85</ele>
        <time>2015-11-23T13:00:28Z</time>
      </trkpt>
      <trkpt lat="44.57909" lon="5.82784">
        <ele>1248.89</ele>
        <time>2015-11-23T13:00:39Z</time>
      </trkpt>
      <trkpt lat="44.57909" lon="5.82803">
        <ele>1251.29</ele>
        <time>2015-11-23T13:00:53Z</time>
      </trkpt>
      <trkpt lat="44.57913" lon="5.82817">
        <ele>1253.22</ele>
        <time>2015-11-23T13:01:05Z</time>
      </trkpt>
      <trkpt lat="44.57918" lon="5.82834">
        <ele>1252.74</ele>
        <time>2015-11-23T13:01:18Z</time>
      </trkpt>
      <trkpt lat="44.57924" lon="5.82845">
        <ele>1254.18</ele>
        <time>2015-11-23T13:01:28Z</time>
      </trkpt>
      <trkpt lat="44.57925" lon="5.82846">
        <ele>1254.18</ele>
        <time>2015-11-23T13:01:29Z</time>
      </trkpt>
      <trkpt lat="44.57929" lon="5.8285">
        <ele>1254.66</ele>
        <time>2015-11-23T13:01:34Z</time>
      </trkpt>
      <trkpt lat="44.57938" lon="5.8286">
        <ele>1256.1</ele>
        <time>2015-11-23T13:01:48Z</time>
      </trkpt>
      <trkpt lat="44.57941" lon="5.82868">
        <ele>1257.54</ele>
        <time>2015-11-23T13:01:54Z</time>
      </trkpt>
      <trkpt lat="44.57949" lon="5.82881">
        <ele>1258.02</ele>
        <time>2015-11-23T13:02:07Z</time>
      </trkpt>
      <trkpt lat="44.57951" lon="5.82882">
        <ele>1258.98</ele>
        <time>2015-11-23T13:02:09Z</time>
      </trkpt>
      <trkpt lat="44.57955" lon="5.82891">
        <ele>1259.94</ele>
        <time>2015-11-23T13:02:19Z</time>
      </trkpt>
      <trkpt lat="44.57961" lon="5.82901">
        <ele>1260.91</ele>
        <time>2015-11-23T13:02:30Z</time>
      </trkpt>
      <trkpt lat="44.57962" lon="5.82904">
        <ele>1261.39</ele>
        <time>2015-11-23T13:02:33Z</time>
      </trkpt>
      <trkpt lat="44.57966" lon="5.82912">
        <ele>1260.91</ele>
        <time>2015-11-23T13:02:41Z</time>
      </trkpt>
      <trkpt lat="44.57971" lon="5.82928">
        <ele>1261.39</ele>
        <time>2015-11-23T13:02:56Z</time>
      </trkpt>
      <trkpt lat="44.57974" lon="5.82935">
        <ele>1263.79</ele>
        <time>2015-11-23T13:03:02Z</time>
      </trkpt>
      <trkpt lat="44.57981" lon="5.82944">
        <ele>1265.23</ele>
        <time>2015-11-23T13:03:14Z</time>
      </trkpt>
      <trkpt lat="44.5799" lon="5.82958">
        <ele>1265.71</ele>
        <time>2015-11-23T13:03:29Z</time>
      </trkpt>
      <trkpt lat="44.57999" lon="5.82966">
        <ele>1266.67</ele>
        <time>2015-11-23T13:03:42Z</time>
      </trkpt>
      <trkpt lat="44.5801" lon="5.82972">
        <ele>1268.12</ele>
        <time>2015-11-23T13:03:55Z</time>
      </trkpt>
      <trkpt lat="44.5802" lon="5.82978">
        <ele>1271</ele>
        <time>2015-11-23T13:04:07Z</time>
      </trkpt>
      <trkpt lat="44.58023" lon="5.8298">
        <ele>1270.52</ele>
        <time>2015-11-23T13:04:11Z</time>
      </trkpt>
      <trkpt lat="44.58035" lon="5.82982">
        <ele>1271.96</ele>
        <time>2015-11-23T13:04:25Z</time>
      </trkpt>
      <trkpt lat="44.58042" lon="5.82982">
        <ele>1272.44</ele>
        <time>2015-11-23T13:04:34Z</time>
      </trkpt>
      <trkpt lat="44.58048" lon="5.82982">
        <ele>1272.92</ele>
        <time>2015-11-23T13:04:41Z</time>
      </trkpt>
      <trkpt lat="44.58056" lon="5.82982">
        <ele>1273.4</ele>
        <time>2015-11-23T13:04:50Z</time>
      </trkpt>
      <trkpt lat="44.58058" lon="5.82982">
        <ele>1274.36</ele>
        <time>2015-11-23T13:04:52Z</time>
      </trkpt>
      <trkpt lat="44.5807" lon="5.82983">
        <ele>1274.85</ele>
        <time>2015-11-23T13:05:05Z</time>
      </trkpt>
      <trkpt lat="44.58084" lon="5.82985">
        <ele>1275.81</ele>
        <time>2015-11-23T13:05:19Z</time>
      </trkpt>
      <trkpt lat="44.58091" lon="5.82986">
        <ele>1277.25</ele>
        <time>2015-11-23T13:05:27Z</time>
      </trkpt>
      <trkpt lat="44.58108" lon="5.82988">
        <ele>1278.69</ele>
        <time>2015-11-23T13:05:44Z</time>
      </trkpt>
      <trkpt lat="44.58121" lon="5.82994">
        <ele>1278.69</ele>
        <time>2015-11-23T13:05:59Z</time>
      </trkpt>
      <trkpt lat="44.58136" lon="5.82999">
        <ele>1277.73</ele>
        <time>2015-11-23T13:06:15Z</time>
      </trkpt>
      <trkpt lat="44.5814" lon="5.83002">
        <ele>1278.21</ele>
        <time>2015-11-23T13:06:20Z</time>
      </trkpt>
      <trkpt lat="44.5815" lon="5.83009">
        <ele>1278.69</ele>
        <time>2015-11-23T13:06:33Z</time>
      </trkpt>
      <trkpt lat="44.58157" lon="5.83014">
        <ele>1278.21</ele>
        <time>2015-11-23T13:06:47Z</time>
      </trkpt>
      <trkpt lat="44.58162" lon="5.83018">
        <ele>1277.25</ele>
        <time>2015-11-23T13:06:54Z</time>
      </trkpt>
      <trkpt lat="44.58171" lon="5.83024">
        <ele>1279.17</ele>
        <time>2015-11-23T13:07:03Z</time>
      </trkpt>
      <trkpt lat="44.58174" lon="5.83027">
        <ele>1277.25</ele>
        <time>2015-11-23T13:07:06Z</time>
      </trkpt>
      <trkpt lat="44.58187" lon="5.83037">
        <ele>1276.77</ele>
        <time>2015-11-23T13:07:21Z</time>
      </trkpt>
      <trkpt lat="44.58192" lon="5.83039">
        <ele>1275.81</ele>
        <time>2015-11-23T13:07:25Z</time>
      </trkpt>
      <trkpt lat="44.58194" lon="5.83041">
        <ele>1277.25</ele>
        <time>2015-11-23T13:07:27Z</time>
      </trkpt>
      <trkpt lat="44.58208" lon="5.83054">
        <ele>1274.36</ele>
        <time>2015-11-23T13:07:42Z</time>
      </trkpt>
      <trkpt lat="44.58222" lon="5.83063">
        <ele>1277.73</ele>
        <time>2015-11-23T13:07:53Z</time>
      </trkpt>
      <trkpt lat="44.58235" lon="5.83072">
        <ele>1275.33</ele>
        <time>2015-11-23T13:08:06Z</time>
      </trkpt>
      <trkpt lat="44.58237" lon="5.83074">
        <ele>1275.33</ele>
        <time>2015-11-23T13:08:08Z</time>
      </trkpt>
      <trkpt lat="44.58239" lon="5.83076">
        <ele>1274.36</ele>
        <time>2015-11-23T13:08:11Z</time>
      </trkpt>
      <trkpt lat="44.58244" lon="5.83083">
        <ele>1274.85</ele>
        <time>2015-11-23T13:08:17Z</time>
      </trkpt>
      <trkpt lat="44.58245" lon="5.83086">
        <ele>1274.36</ele>
        <time>2015-11-23T13:08:19Z</time>
      </trkpt>
      <trkpt lat="44.58247" lon="5.83088">
        <ele>1274.36</ele>
        <time>2015-11-23T13:08:21Z</time>
      </trkpt>
      <trkpt lat="44.58252" lon="5.83096">
        <ele>1273.88</ele>
        <time>2015-11-23T13:08:27Z</time>
      </trkpt>
      <trkpt lat="44.58254" lon="5.83101">
        <ele>1274.36</ele>
        <time>2015-11-23T13:08:31Z</time>
      </trkpt>
      <trkpt lat="44.58259" lon="5.83115">
        <ele>1274.85</ele>
        <time>2015-11-23T13:08:41Z</time>
      </trkpt>
      <trkpt lat="44.58262" lon="5.83119">
        <ele>1273.4</ele>
        <time>2015-11-23T13:08:44Z</time>
      </trkpt>
      <trkpt lat="44.58266" lon="5.83127">
        <ele>1272.44</ele>
        <time>2015-11-23T13:08:50Z</time>
      </trkpt>
      <trkpt lat="44.5827" lon="5.83139">
        <ele>1272.44</ele>
        <time>2015-11-23T13:08:59Z</time>
      </trkpt>
      <trkpt lat="44.58271" lon="5.83142">
        <ele>1273.88</ele>
        <time>2015-11-23T13:09:01Z</time>
      </trkpt>
      <trkpt lat="44.58278" lon="5.83152">
        <ele>1271.48</ele>
        <time>2015-11-23T13:09:10Z</time>
      </trkpt>
      <trkpt lat="44.5829" lon="5.83165">
        <ele>1271.48</ele>
        <time>2015-11-23T13:09:24Z</time>
      </trkpt>
      <trkpt lat="44.58292" lon="5.83168">
        <ele>1271.48</ele>
        <time>2015-11-23T13:09:27Z</time>
      </trkpt>
      <trkpt lat="44.58297" lon="5.83176">
        <ele>1271.96</ele>
        <time>2015-11-23T13:09:33Z</time>
      </trkpt>
      <trkpt lat="44.583" lon="5.83185">
        <ele>1273.4</ele>
        <time>2015-11-23T13:09:39Z</time>
      </trkpt>
      <trkpt lat="44.58304" lon="5.83196">
        <ele>1271.48</ele>
        <time>2015-11-23T13:09:48Z</time>
      </trkpt>
      <trkpt lat="44.58306" lon="5.83201">
        <ele>1271</ele>
        <time>2015-11-23T13:09:52Z</time>
      </trkpt>
      <trkpt lat="44.58307" lon="5.83205">
        <ele>1270.04</ele>
        <time>2015-11-23T13:09:55Z</time>
      </trkpt>
      <trkpt lat="44.58309" lon="5.83211">
        <ele>1271</ele>
        <time>2015-11-23T13:09:59Z</time>
      </trkpt>
      <trkpt lat="44.58314" lon="5.8323">
        <ele>1269.08</ele>
        <time>2015-11-23T13:10:13Z</time>
      </trkpt>
      <trkpt lat="44.58317" lon="5.83234">
        <ele>1268.12</ele>
        <time>2015-11-23T13:10:19Z</time>
      </trkpt>
      <trkpt lat="44.58322" lon="5.83245">
        <ele>1267.64</ele>
        <time>2015-11-23T13:10:27Z</time>
      </trkpt>
      <trkpt lat="44.58326" lon="5.83257">
        <ele>1267.16</ele>
        <time>2015-11-23T13:10:37Z</time>
      </trkpt>
      <trkpt lat="44.58338" lon="5.83272">
        <ele>1264.75</ele>
        <time>2015-11-23T13:10:51Z</time>
      </trkpt>
      <trkpt lat="44.58351" lon="5.83284">
        <ele>1264.75</ele>
        <time>2015-11-23T13:11:05Z</time>
      </trkpt>
      <trkpt lat="44.58355" lon="5.83295">
        <ele>1262.83</ele>
        <time>2015-11-23T13:11:19Z</time>
      </trkpt>
      <trkpt lat="44.58354" lon="5.83305">
        <ele>1263.31</ele>
        <time>2015-11-23T13:11:29Z</time>
      </trkpt>
      <trkpt lat="44.58354" lon="5.83313">
        <ele>1262.35</ele>
        <time>2015-11-23T13:11:35Z</time>
      </trkpt>
      <trkpt lat="44.58355" lon="5.83316">
        <ele>1261.87</ele>
        <time>2015-11-23T13:11:37Z</time>
      </trkpt>
      <trkpt lat="44.58354" lon="5.83328">
        <ele>1260.91</ele>
        <time>2015-11-23T13:11:44Z</time>
      </trkpt>
      <trkpt lat="44.58356" lon="5.83342">
        <ele>1260.43</ele>
        <time>2015-11-23T13:11:53Z</time>
      </trkpt>
      <trkpt lat="44.58359" lon="5.83351">
        <ele>1259.46</ele>
        <time>2015-11-23T13:12:01Z</time>
      </trkpt>
      <trkpt lat="44.58358" lon="5.83353">
        <ele>1259.46</ele>
        <time>2015-11-23T13:12:04Z</time>
      </trkpt>
      <trkpt lat="44.58354" lon="5.83368">
        <ele>1258.5</ele>
        <time>2015-11-23T13:12:19Z</time>
      </trkpt>
      <trkpt lat="44.58353" lon="5.83389">
        <ele>1257.06</ele>
        <time>2015-11-23T13:12:34Z</time>
      </trkpt>
      <trkpt lat="44.58353" lon="5.83392">
        <ele>1258.02</ele>
        <time>2015-11-23T13:12:37Z</time>
      </trkpt>
      <trkpt lat="44.58356" lon="5.83397">
        <ele>1257.06</ele>
        <time>2015-11-23T13:12:42Z</time>
      </trkpt>
      <trkpt lat="44.58361" lon="5.83412">
        <ele>1255.62</ele>
        <time>2015-11-23T13:12:53Z</time>
      </trkpt>
      <trkpt lat="44.58362" lon="5.83414">
        <ele>1255.62</ele>
        <time>2015-11-23T13:12:55Z</time>
      </trkpt>
      <trkpt lat="44.58364" lon="5.83422">
        <ele>1254.66</ele>
        <time>2015-11-23T13:13:01Z</time>
      </trkpt>
      <trkpt lat="44.58365" lon="5.83425">
        <ele>1255.14</ele>
        <time>2015-11-23T13:13:03Z</time>
      </trkpt>
      <trkpt lat="44.58366" lon="5.83435">
        <ele>1254.66</ele>
        <time>2015-11-23T13:13:11Z</time>
      </trkpt>
      <trkpt lat="44.5837" lon="5.83448">
        <ele>1252.74</ele>
        <time>2015-11-23T13:13:23Z</time>
      </trkpt>
      <trkpt lat="44.58373" lon="5.83458">
        <ele>1252.74</ele>
        <time>2015-11-23T13:13:32Z</time>
      </trkpt>
      <trkpt lat="44.58373" lon="5.83462">
        <ele>1251.77</ele>
        <time>2015-11-23T13:13:35Z</time>
      </trkpt>
      <trkpt lat="44.58376" lon="5.8347">
        <ele>1250.81</ele>
        <time>2015-11-23T13:13:40Z</time>
      </trkpt>
      <trkpt lat="44.58377" lon="5.83476">
        <ele>1252.25</ele>
        <time>2015-11-23T13:13:44Z</time>
      </trkpt>
      <trkpt lat="44.58381" lon="5.83485">
        <ele>1251.29</ele>
        <time>2015-11-23T13:13:51Z</time>
      </trkpt>
      <trkpt lat="44.58386" lon="5.83498">
        <ele>1250.33</ele>
        <time>2015-11-23T13:14:03Z</time>
      </trkpt>
      <trkpt lat="44.58398" lon="5.83512">
        <ele>1247.93</ele>
        <time>2015-11-23T13:14:17Z</time>
      </trkpt>
      <trkpt lat="44.58401" lon="5.83515">
        <ele>1246.97</ele>
        <time>2015-11-23T13:14:20Z</time>
      </trkpt>
      <trkpt lat="44.58409" lon="5.8353">
        <ele>1245.53</ele>
        <time>2015-11-23T13:14:32Z</time>
      </trkpt>
      <trkpt lat="44.58411" lon="5.83548">
        <ele>1245.04</ele>
        <time>2015-11-23T13:14:44Z</time>
      </trkpt>
      <trkpt lat="44.58412" lon="5.83563">
        <ele>1245.53</ele>
        <time>2015-11-23T13:14:54Z</time>
      </trkpt>
      <trkpt lat="44.58418" lon="5.83573">
        <ele>1244.56</ele>
        <time>2015-11-23T13:15:06Z</time>
      </trkpt>
      <trkpt lat="44.58426" lon="5.83573">
        <ele>1243.6</ele>
        <time>2015-11-23T13:15:13Z</time>
      </trkpt>
      <trkpt lat="44.58446" lon="5.83568">
        <ele>1242.16</ele>
        <time>2015-11-23T13:15:30Z</time>
      </trkpt>
      <trkpt lat="44.58453" lon="5.83572">
        <ele>1242.64</ele>
        <time>2015-11-23T13:15:37Z</time>
      </trkpt>
      <trkpt lat="44.58464" lon="5.83585">
        <ele>1240.24</ele>
        <time>2015-11-23T13:15:53Z</time>
      </trkpt>
      <trkpt lat="44.58468" lon="5.83594">
        <ele>1238.32</ele>
        <time>2015-11-23T13:16:01Z</time>
      </trkpt>
      <trkpt lat="44.58471" lon="5.83605">
        <ele>1238.8</ele>
        <time>2015-11-23T13:16:10Z</time>
      </trkpt>
      <trkpt lat="44.58477" lon="5.83612">
        <ele>1236.39</ele>
        <time>2015-11-23T13:16:17Z</time>
      </trkpt>
      <trkpt lat="44.58483" lon="5.83625">
        <ele>1236.39</ele>
        <time>2015-11-23T13:16:28Z</time>
      </trkpt>
      <trkpt lat="44.58484" lon="5.83646">
        <ele>1234.95</ele>
        <time>2015-11-23T13:16:42Z</time>
      </trkpt>
      <trkpt lat="44.58485" lon="5.83662">
        <ele>1233.99</ele>
        <time>2015-11-23T13:16:54Z</time>
      </trkpt>
      <trkpt lat="44.58485" lon="5.83664">
        <ele>1233.51</ele>
        <time>2015-11-23T13:16:55Z</time>
      </trkpt>
      <trkpt lat="44.58488" lon="5.83675">
        <ele>1232.07</ele>
        <time>2015-11-23T13:17:07Z</time>
      </trkpt>
      <trkpt lat="44.58489" lon="5.83685">
        <ele>1232.07</ele>
        <time>2015-11-23T13:17:15Z</time>
      </trkpt>
      <trkpt lat="44.58491" lon="5.8369">
        <ele>1231.59</ele>
        <time>2015-11-23T13:17:18Z</time>
      </trkpt>
      <trkpt lat="44.58491" lon="5.83699">
        <ele>1230.62</ele>
        <time>2015-11-23T13:17:24Z</time>
      </trkpt>
      <trkpt lat="44.58494" lon="5.83718">
        <ele>1228.7</ele>
        <time>2015-11-23T13:17:37Z</time>
      </trkpt>
      <trkpt lat="44.58495" lon="5.83721">
        <ele>1230.14</ele>
        <time>2015-11-23T13:17:40Z</time>
      </trkpt>
      <trkpt lat="44.58494" lon="5.83737">
        <ele>1228.7</ele>
        <time>2015-11-23T13:17:53Z</time>
      </trkpt>
      <trkpt lat="44.58494" lon="5.83738">
        <ele>1228.7</ele>
        <time>2015-11-23T13:17:54Z</time>
      </trkpt>
      <trkpt lat="44.58494" lon="5.83756">
        <ele>1226.3</ele>
        <time>2015-11-23T13:18:06Z</time>
      </trkpt>
      <trkpt lat="44.58493" lon="5.83765">
        <ele>1224.86</ele>
        <time>2015-11-23T13:18:13Z</time>
      </trkpt>
      <trkpt lat="44.58492" lon="5.83771">
        <ele>1225.34</ele>
        <time>2015-11-23T13:18:17Z</time>
      </trkpt>
      <trkpt lat="44.58489" lon="5.83786">
        <ele>1223.42</ele>
        <time>2015-11-23T13:18:28Z</time>
      </trkpt>
      <trkpt lat="44.58487" lon="5.83798">
        <ele>1223.42</ele>
        <time>2015-11-23T13:18:37Z</time>
      </trkpt>
      <trkpt lat="44.58482" lon="5.83817">
        <ele>1222.45</ele>
        <time>2015-11-23T13:18:51Z</time>
      </trkpt>
      <trkpt lat="44.5848" lon="5.83827">
        <ele>1222.93</ele>
        <time>2015-11-23T13:18:58Z</time>
      </trkpt>
      <trkpt lat="44.58479" lon="5.83848">
        <ele>1221.49</ele>
        <time>2015-11-23T13:19:14Z</time>
      </trkpt>
      <trkpt lat="44.58479" lon="5.83862">
        <ele>1220.05</ele>
        <time>2015-11-23T13:19:25Z</time>
      </trkpt>
      <trkpt lat="44.58479" lon="5.83877">
        <ele>1218.13</ele>
        <time>2015-11-23T13:19:36Z</time>
      </trkpt>
      <trkpt lat="44.5848" lon="5.83885">
        <ele>1218.61</ele>
        <time>2015-11-23T13:19:40Z</time>
      </trkpt>
      <trkpt lat="44.58485" lon="5.83896">
        <ele>1217.65</ele>
        <time>2015-11-23T13:19:48Z</time>
      </trkpt>
      <trkpt lat="44.58489" lon="5.83907">
        <ele>1215.72</ele>
        <time>2015-11-23T13:19:55Z</time>
      </trkpt>
      <trkpt lat="44.58497" lon="5.83927">
        <ele>1214.76</ele>
        <time>2015-11-23T13:20:10Z</time>
      </trkpt>
      <trkpt lat="44.585" lon="5.8393">
        <ele>1213.32</ele>
        <time>2015-11-23T13:20:14Z</time>
      </trkpt>
      <trkpt lat="44.58507" lon="5.83942">
        <ele>1213.32</ele>
        <time>2015-11-23T13:20:23Z</time>
      </trkpt>
      <trkpt lat="44.58513" lon="5.83958">
        <ele>1210.92</ele>
        <time>2015-11-23T13:20:37Z</time>
      </trkpt>
      <trkpt lat="44.58515" lon="5.83968">
        <ele>1210.44</ele>
        <time>2015-11-23T13:20:47Z</time>
      </trkpt>
      <trkpt lat="44.58515" lon="5.83979">
        <ele>1209.48</ele>
        <time>2015-11-23T13:20:55Z</time>
      </trkpt>
      <trkpt lat="44.58504" lon="5.83991">
        <ele>1207.55</ele>
        <time>2015-11-23T13:21:07Z</time>
      </trkpt>
      <trkpt lat="44.58492" lon="5.8399">
        <ele>1206.59</ele>
        <time>2015-11-23T13:21:19Z</time>
      </trkpt>
      <trkpt lat="44.58489" lon="5.8399">
        <ele>1207.07</ele>
        <time>2015-11-23T13:21:22Z</time>
      </trkpt>
      <trkpt lat="44.58471" lon="5.83987">
        <ele>1207.07</ele>
        <time>2015-11-23T13:21:37Z</time>
      </trkpt>
      <trkpt lat="44.58468" lon="5.83983">
        <ele>1207.55</ele>
        <time>2015-11-23T13:21:41Z</time>
      </trkpt>
      <trkpt lat="44.58462" lon="5.83964">
        <ele>1208.51</ele>
        <time>2015-11-23T13:21:53Z</time>
      </trkpt>
      <trkpt lat="44.5846" lon="5.83945">
        <ele>1209.48</ele>
        <time>2015-11-23T13:22:05Z</time>
      </trkpt>
      <trkpt lat="44.58459" lon="5.83943">
        <ele>1209.48</ele>
        <time>2015-11-23T13:22:06Z</time>
      </trkpt>
      <trkpt lat="44.58458" lon="5.8394">
        <ele>1208.51</ele>
        <time>2015-11-23T13:22:08Z</time>
      </trkpt>
      <trkpt lat="44.58457" lon="5.83939">
        <ele>1208.51</ele>
        <time>2015-11-23T13:22:09Z</time>
      </trkpt>
      <trkpt lat="44.58444" lon="5.83925">
        <ele>1207.07</ele>
        <time>2015-11-23T13:22:22Z</time>
      </trkpt>
      <trkpt lat="44.58437" lon="5.83923">
        <ele>1208.51</ele>
        <time>2015-11-23T13:22:28Z</time>
      </trkpt>
      <trkpt lat="44.58424" lon="5.83924">
        <ele>1208.03</ele>
        <time>2015-11-23T13:22:39Z</time>
      </trkpt>
      <trkpt lat="44.58406" lon="5.83921">
        <ele>1208.51</ele>
        <time>2015-11-23T13:22:55Z</time>
      </trkpt>
      <trkpt lat="44.58403" lon="5.83915">
        <ele>1209</ele>
        <time>2015-11-23T13:23:00Z</time>
      </trkpt>
      <trkpt lat="44.58402" lon="5.83913">
        <ele>1208.51</ele>
        <time>2015-11-23T13:23:02Z</time>
      </trkpt>
      <trkpt lat="44.584" lon="5.83909">
        <ele>1208.51</ele>
        <time>2015-11-23T13:23:05Z</time>
      </trkpt>
      <trkpt lat="44.58397" lon="5.83898">
        <ele>1209.48</ele>
        <time>2015-11-23T13:23:12Z</time>
      </trkpt>
      <trkpt lat="44.58394" lon="5.83891">
        <ele>1208.51</ele>
        <time>2015-11-23T13:23:17Z</time>
      </trkpt>
      <trkpt lat="44.58385" lon="5.83884">
        <ele>1207.07</ele>
        <time>2015-11-23T13:23:24Z</time>
      </trkpt>
      <trkpt lat="44.58373" lon="5.83885">
        <ele>1208.51</ele>
        <time>2015-11-23T13:23:33Z</time>
      </trkpt>
      <trkpt lat="44.58369" lon="5.83889">
        <ele>1207.55</ele>
        <time>2015-11-23T13:23:37Z</time>
      </trkpt>
      <trkpt lat="44.58361" lon="5.83898">
        <ele>1207.55</ele>
        <time>2015-11-23T13:23:44Z</time>
      </trkpt>
      <trkpt lat="44.58342" lon="5.83904">
        <ele>1207.07</ele>
        <time>2015-11-23T13:24:01Z</time>
      </trkpt>
      <trkpt lat="44.5833" lon="5.83898">
        <ele>1206.59</ele>
        <time>2015-11-23T13:24:13Z</time>
      </trkpt>
      <trkpt lat="44.58328" lon="5.83897">
        <ele>1206.59</ele>
        <time>2015-11-23T13:24:16Z</time>
      </trkpt>
      <trkpt lat="44.58314" lon="5.83898">
        <ele>1207.07</ele>
        <time>2015-11-23T13:24:29Z</time>
      </trkpt>
      <trkpt lat="44.58298" lon="5.83907">
        <ele>1208.03</ele>
        <time>2015-11-23T13:24:43Z</time>
      </trkpt>
      <trkpt lat="44.58287" lon="5.8391">
        <ele>1204.67</ele>
        <time>2015-11-23T13:24:51Z</time>
      </trkpt>
      <trkpt lat="44.58274" lon="5.83906">
        <ele>1205.15</ele>
        <time>2015-11-23T13:25:04Z</time>
      </trkpt>
      <trkpt lat="44.58262" lon="5.83901">
        <ele>1204.19</ele>
        <time>2015-11-23T13:25:18Z</time>
      </trkpt>
      <trkpt lat="44.58246" lon="5.83901">
        <ele>1203.71</ele>
        <time>2015-11-23T13:25:31Z</time>
      </trkpt>
      <trkpt lat="44.58244" lon="5.839">
        <ele>1204.19</ele>
        <time>2015-11-23T13:25:33Z</time>
      </trkpt>
      <trkpt lat="44.58236" lon="5.83911">
        <ele>1204.67</ele>
        <time>2015-11-23T13:25:41Z</time>
      </trkpt>
      <trkpt lat="44.58229" lon="5.83938">
        <ele>1205.15</ele>
        <time>2015-11-23T13:25:57Z</time>
      </trkpt>
      <trkpt lat="44.58228" lon="5.83946">
        <ele>1205.15</ele>
        <time>2015-11-23T13:26:02Z</time>
      </trkpt>
      <trkpt lat="44.5822" lon="5.83971">
        <ele>1205.15</ele>
        <time>2015-11-23T13:26:17Z</time>
      </trkpt>
      <trkpt lat="44.58212" lon="5.83994">
        <ele>1204.67</ele>
        <time>2015-11-23T13:26:32Z</time>
      </trkpt>
      <trkpt lat="44.58208" lon="5.84009">
        <ele>1204.67</ele>
        <time>2015-11-23T13:26:41Z</time>
      </trkpt>
      <trkpt lat="44.58203" lon="5.84015">
        <ele>1205.15</ele>
        <time>2015-11-23T13:26:46Z</time>
      </trkpt>
      <trkpt lat="44.58197" lon="5.84018">
        <ele>1204.67</ele>
        <time>2015-11-23T13:26:51Z</time>
      </trkpt>
      <trkpt lat="44.58183" lon="5.84007">
        <ele>1204.19</ele>
        <time>2015-11-23T13:27:05Z</time>
      </trkpt>
      <trkpt lat="44.58179" lon="5.84005">
        <ele>1204.19</ele>
        <time>2015-11-23T13:27:09Z</time>
      </trkpt>
      <trkpt lat="44.58174" lon="5.84005">
        <ele>1203.23</ele>
        <time>2015-11-23T13:27:14Z</time>
      </trkpt>
      <trkpt lat="44.58159" lon="5.84005">
        <ele>1203.23</ele>
        <time>2015-11-23T13:27:27Z</time>
      </trkpt>
      <trkpt lat="44.5814" lon="5.84011">
        <ele>1202.27</ele>
        <time>2015-11-23T13:27:41Z</time>
      </trkpt>
      <trkpt lat="44.58127" lon="5.84018">
        <ele>1201.79</ele>
        <time>2015-11-23T13:27:52Z</time>
      </trkpt>
      <trkpt lat="44.58114" lon="5.84027">
        <ele>1202.27</ele>
        <time>2015-11-23T13:28:04Z</time>
      </trkpt>
      <trkpt lat="44.58112" lon="5.84031">
        <ele>1202.27</ele>
        <time>2015-11-23T13:28:06Z</time>
      </trkpt>
      <trkpt lat="44.58105" lon="5.84036">
        <ele>1203.23</ele>
        <time>2015-11-23T13:28:11Z</time>
      </trkpt>
      <trkpt lat="44.581" lon="5.8404">
        <ele>1202.75</ele>
        <time>2015-11-23T13:28:16Z</time>
      </trkpt>
      <trkpt lat="44.58088" lon="5.84047">
        <ele>1202.75</ele>
        <time>2015-11-23T13:28:27Z</time>
      </trkpt>
      <trkpt lat="44.58077" lon="5.84057">
        <ele>1204.67</ele>
        <time>2015-11-23T13:28:39Z</time>
      </trkpt>
      <trkpt lat="44.58073" lon="5.8406">
        <ele>1204.19</ele>
        <time>2015-11-23T13:28:43Z</time>
      </trkpt>
      <trkpt lat="44.58061" lon="5.84069">
        <ele>1206.59</ele>
        <time>2015-11-23T13:28:56Z</time>
      </trkpt>
      <trkpt lat="44.58059" lon="5.84072">
        <ele>1207.07</ele>
        <time>2015-11-23T13:28:58Z</time>
      </trkpt>
      <trkpt lat="44.58058" lon="5.84074">
        <ele>1207.07</ele>
        <time>2015-11-23T13:29:00Z</time>
      </trkpt>
      <trkpt lat="44.58045" lon="5.8409">
        <ele>1208.03</ele>
        <time>2015-11-23T13:29:15Z</time>
      </trkpt>
      <trkpt lat="44.58036" lon="5.84104">
        <ele>1209.48</ele>
        <time>2015-11-23T13:29:28Z</time>
      </trkpt>
      <trkpt lat="44.58032" lon="5.84108">
        <ele>1210.44</ele>
        <time>2015-11-23T13:29:34Z</time>
      </trkpt>
      <trkpt lat="44.58031" lon="5.8411">
        <ele>1209.96</ele>
        <time>2015-11-23T13:29:36Z</time>
      </trkpt>
      <trkpt lat="44.5803" lon="5.84112">
        <ele>1209.96</ele>
        <time>2015-11-23T13:29:38Z</time>
      </trkpt>
      <trkpt lat="44.58026" lon="5.84118">
        <ele>1209.96</ele>
        <time>2015-11-23T13:29:43Z</time>
      </trkpt>
      <trkpt lat="44.5802" lon="5.8413">
        <ele>1211.88</ele>
        <time>2015-11-23T13:29:53Z</time>
      </trkpt>
      <trkpt lat="44.58012" lon="5.84138">
        <ele>1212.84</ele>
        <time>2015-11-23T13:30:03Z</time>
      </trkpt>
      <trkpt lat="44.58002" lon="5.8415">
        <ele>1213.32</ele>
        <time>2015-11-23T13:30:18Z</time>
      </trkpt>
      <trkpt lat="44.57992" lon="5.84161">
        <ele>1214.28</ele>
        <time>2015-11-23T13:30:32Z</time>
      </trkpt>
      <trkpt lat="44.57987" lon="5.84169">
        <ele>1214.28</ele>
        <time>2015-11-23T13:30:40Z</time>
      </trkpt>
      <trkpt lat="44.5798" lon="5.8418">
        <ele>1216.69</ele>
        <time>2015-11-23T13:30:53Z</time>
      </trkpt>
      <trkpt lat="44.57975" lon="5.8419">
        <ele>1217.17</ele>
        <time>2015-11-23T13:31:01Z</time>
      </trkpt>
      <trkpt lat="44.57968" lon="5.84213">
        <ele>1218.13</ele>
        <time>2015-11-23T13:31:15Z</time>
      </trkpt>
      <trkpt lat="44.57962" lon="5.84227">
        <ele>1219.09</ele>
        <time>2015-11-23T13:31:29Z</time>
      </trkpt>
      <trkpt lat="44.57956" lon="5.84247">
        <ele>1219.09</ele>
        <time>2015-11-23T13:31:43Z</time>
      </trkpt>
      <trkpt lat="44.57954" lon="5.84251">
        <ele>1222.45</ele>
        <time>2015-11-23T13:31:47Z</time>
      </trkpt>
      <trkpt lat="44.57945" lon="5.84265">
        <ele>1221.49</ele>
        <time>2015-11-23T13:32:02Z</time>
      </trkpt>
      <trkpt lat="44.57939" lon="5.84278">
        <ele>1223.9</ele>
        <time>2015-11-23T13:32:16Z</time>
      </trkpt>
      <trkpt lat="44.57937" lon="5.84283">
        <ele>1222.45</ele>
        <time>2015-11-23T13:32:21Z</time>
      </trkpt>
      <trkpt lat="44.5793" lon="5.84297">
        <ele>1225.34</ele>
        <time>2015-11-23T13:32:35Z</time>
      </trkpt>
      <trkpt lat="44.57926" lon="5.84313">
        <ele>1225.82</ele>
        <time>2015-11-23T13:32:45Z</time>
      </trkpt>
      <trkpt lat="44.57921" lon="5.8433">
        <ele>1228.22</ele>
        <time>2015-11-23T13:32:58Z</time>
      </trkpt>
      <trkpt lat="44.57919" lon="5.84337">
        <ele>1228.22</ele>
        <time>2015-11-23T13:33:04Z</time>
      </trkpt>
      <trkpt lat="44.57914" lon="5.8435">
        <ele>1229.18</ele>
        <time>2015-11-23T13:33:17Z</time>
      </trkpt>
      <trkpt lat="44.57908" lon="5.84373">
        <ele>1228.7</ele>
        <time>2015-11-23T13:33:33Z</time>
      </trkpt>
      <trkpt lat="44.57908" lon="5.84376">
        <ele>1229.66</ele>
        <time>2015-11-23T13:33:35Z</time>
      </trkpt>
      <trkpt lat="44.57907" lon="5.84393">
        <ele>1230.14</ele>
        <time>2015-11-23T13:33:46Z</time>
      </trkpt>
      <trkpt lat="44.57907" lon="5.84401">
        <ele>1229.18</ele>
        <time>2015-11-23T13:33:52Z</time>
      </trkpt>
      <trkpt lat="44.57906" lon="5.84426">
        <ele>1231.11</ele>
        <time>2015-11-23T13:34:09Z</time>
      </trkpt>
      <trkpt lat="44.57904" lon="5.84442">
        <ele>1231.59</ele>
        <time>2015-11-23T13:34:21Z</time>
      </trkpt>
      <trkpt lat="44.57901" lon="5.84453">
        <ele>1233.03</ele>
        <time>2015-11-23T13:34:31Z</time>
      </trkpt>
      <trkpt lat="44.579" lon="5.8446">
        <ele>1233.03</ele>
        <time>2015-11-23T13:34:36Z</time>
      </trkpt>
      <trkpt lat="44.57899" lon="5.84468">
        <ele>1233.51</ele>
        <time>2015-11-23T13:34:41Z</time>
      </trkpt>
      <trkpt lat="44.57898" lon="5.84473">
        <ele>1233.03</ele>
        <time>2015-11-23T13:34:44Z</time>
      </trkpt>
      <trkpt lat="44.57898" lon="5.8449">
        <ele>1234.47</ele>
        <time>2015-11-23T13:34:54Z</time>
      </trkpt>
      <trkpt lat="44.57896" lon="5.84508">
        <ele>1233.99</ele>
        <time>2015-11-23T13:35:07Z</time>
      </trkpt>
      <trkpt lat="44.57894" lon="5.84517">
        <ele>1233.99</ele>
        <time>2015-11-23T13:35:13Z</time>
      </trkpt>
      <trkpt lat="44.5789" lon="5.84536">
        <ele>1235.43</ele>
        <time>2015-11-23T13:35:25Z</time>
      </trkpt>
      <trkpt lat="44.5789" lon="5.84556">
        <ele>1236.87</ele>
        <time>2015-11-23T13:35:38Z</time>
      </trkpt>
      <trkpt lat="44.57891" lon="5.84561">
        <ele>1236.39</ele>
        <time>2015-11-23T13:35:42Z</time>
      </trkpt>
      <trkpt lat="44.57891" lon="5.84564">
        <ele>1237.35</ele>
        <time>2015-11-23T13:35:44Z</time>
      </trkpt>
      <trkpt lat="44.57891" lon="5.84568">
        <ele>1237.83</ele>
        <time>2015-11-23T13:35:46Z</time>
      </trkpt>
      <trkpt lat="44.57892" lon="5.84572">
        <ele>1237.35</ele>
        <time>2015-11-23T13:35:48Z</time>
      </trkpt>
      <trkpt lat="44.5789" lon="5.84586">
        <ele>1237.83</ele>
        <time>2015-11-23T13:35:58Z</time>
      </trkpt>
      <trkpt lat="44.57888" lon="5.84592">
        <ele>1237.35</ele>
        <time>2015-11-23T13:36:02Z</time>
      </trkpt>
      <trkpt lat="44.5788" lon="5.8461">
        <ele>1238.32</ele>
        <time>2015-11-23T13:36:15Z</time>
      </trkpt>
      <trkpt lat="44.57879" lon="5.84616">
        <ele>1237.83</ele>
        <time>2015-11-23T13:36:19Z</time>
      </trkpt>
      <trkpt lat="44.57879" lon="5.84626">
        <ele>1239.28</ele>
        <time>2015-11-23T13:36:26Z</time>
      </trkpt>
      <trkpt lat="44.57874" lon="5.84641">
        <ele>1237.83</ele>
        <time>2015-11-23T13:36:36Z</time>
      </trkpt>
      <trkpt lat="44.57872" lon="5.84651">
        <ele>1238.8</ele>
        <time>2015-11-23T13:36:52Z</time>
      </trkpt>
      <trkpt lat="44.57872" lon="5.84652">
        <ele>1236.87</ele>
        <time>2015-11-23T13:37:30Z</time>
      </trkpt>
      <trkpt lat="44.57867" lon="5.84638">
        <ele>1237.83</ele>
        <time>2015-11-23T13:37:47Z</time>
      </trkpt>
      <trkpt lat="44.57856" lon="5.84634">
        <ele>1239.28</ele>
        <time>2015-11-23T13:38:01Z</time>
      </trkpt>
      <trkpt lat="44.5785" lon="5.8463">
        <ele>1240.24</ele>
        <time>2015-11-23T13:38:11Z</time>
      </trkpt>
      <trkpt lat="44.57839" lon="5.84621">
        <ele>1240.72</ele>
        <time>2015-11-23T13:38:25Z</time>
      </trkpt>
      <trkpt lat="44.57834" lon="5.84611">
        <ele>1242.16</ele>
        <time>2015-11-23T13:38:37Z</time>
      </trkpt>
      <trkpt lat="44.57824" lon="5.84599">
        <ele>1243.12</ele>
        <time>2015-11-23T13:38:50Z</time>
      </trkpt>
      <trkpt lat="44.57815" lon="5.8459">
        <ele>1244.56</ele>
        <time>2015-11-23T13:39:04Z</time>
      </trkpt>
      <trkpt lat="44.57805" lon="5.8458">
        <ele>1245.53</ele>
        <time>2015-11-23T13:39:18Z</time>
      </trkpt>
      <trkpt lat="44.57802" lon="5.84574">
        <ele>1245.04</ele>
        <time>2015-11-23T13:39:26Z</time>
      </trkpt>
      <trkpt lat="44.57793" lon="5.84566">
        <ele>1248.41</ele>
        <time>2015-11-23T13:39:39Z</time>
      </trkpt>
      <trkpt lat="44.57782" lon="5.84556">
        <ele>1248.89</ele>
        <time>2015-11-23T13:39:52Z</time>
      </trkpt>
      <trkpt lat="44.5777" lon="5.84549">
        <ele>1250.33</ele>
        <time>2015-11-23T13:40:05Z</time>
      </trkpt>
      <trkpt lat="44.57763" lon="5.84543">
        <ele>1251.29</ele>
        <time>2015-11-23T13:40:14Z</time>
      </trkpt>
      <trkpt lat="44.57758" lon="5.84537">
        <ele>1251.29</ele>
        <time>2015-11-23T13:40:26Z</time>
      </trkpt>
      <trkpt lat="44.57758" lon="5.84536">
        <ele>1251.29</ele>
        <time>2015-11-23T13:40:27Z</time>
      </trkpt>
      <trkpt lat="44.57754" lon="5.84534">
        <ele>1251.77</ele>
        <time>2015-11-23T13:40:32Z</time>
      </trkpt>
      <trkpt lat="44.57749" lon="5.84528">
        <ele>1252.74</ele>
        <time>2015-11-23T13:40:39Z</time>
      </trkpt>
      <trkpt lat="44.57743" lon="5.84523">
        <ele>1253.7</ele>
        <time>2015-11-23T13:40:49Z</time>
      </trkpt>
      <trkpt lat="44.57734" lon="5.84517">
        <ele>1255.62</ele>
        <time>2015-11-23T13:41:04Z</time>
      </trkpt>
      <trkpt lat="44.57728" lon="5.84511">
        <ele>1255.62</ele>
        <time>2015-11-23T13:41:17Z</time>
      </trkpt>
      <trkpt lat="44.57719" lon="5.84503">
        <ele>1256.58</ele>
        <time>2015-11-23T13:41:29Z</time>
      </trkpt>
      <trkpt lat="44.5771" lon="5.84495">
        <ele>1258.5</ele>
        <time>2015-11-23T13:41:42Z</time>
      </trkpt>
      <trkpt lat="44.57708" lon="5.84494">
        <ele>1259.94</ele>
        <time>2015-11-23T13:41:46Z</time>
      </trkpt>
      <trkpt lat="44.57703" lon="5.84491">
        <ele>1258.98</ele>
        <time>2015-11-23T13:41:51Z</time>
      </trkpt>
      <trkpt lat="44.57698" lon="5.84485">
        <ele>1259.94</ele>
        <time>2015-11-23T13:42:01Z</time>
      </trkpt>
      <trkpt lat="44.57693" lon="5.84483">
        <ele>1260.91</ele>
        <time>2015-11-23T13:42:05Z</time>
      </trkpt>
      <trkpt lat="44.5768" lon="5.84479">
        <ele>1262.35</ele>
        <time>2015-11-23T13:42:15Z</time>
      </trkpt>
      <trkpt lat="44.57677" lon="5.84476">
        <ele>1260.43</ele>
        <time>2015-11-23T13:42:20Z</time>
      </trkpt>
      <trkpt lat="44.5767" lon="5.84473">
        <ele>1263.79</ele>
        <time>2015-11-23T13:42:28Z</time>
      </trkpt>
      <trkpt lat="44.57657" lon="5.84467">
        <ele>1264.27</ele>
        <time>2015-11-23T13:42:42Z</time>
      </trkpt>
      <trkpt lat="44.57654" lon="5.84462">
        <ele>1263.31</ele>
        <time>2015-11-23T13:42:52Z</time>
      </trkpt>
      <trkpt lat="44.57652" lon="5.84461">
        <ele>1265.23</ele>
        <time>2015-11-23T13:42:55Z</time>
      </trkpt>
      <trkpt lat="44.57647" lon="5.84453">
        <ele>1265.71</ele>
        <time>2015-11-23T13:43:06Z</time>
      </trkpt>
      <trkpt lat="44.57644" lon="5.84444">
        <ele>1266.67</ele>
        <time>2015-11-23T13:43:16Z</time>
      </trkpt>
      <trkpt lat="44.57636" lon="5.84439">
        <ele>1268.12</ele>
        <time>2015-11-23T13:43:27Z</time>
      </trkpt>
      <trkpt lat="44.57627" lon="5.84435">
        <ele>1268.6</ele>
        <time>2015-11-23T13:43:38Z</time>
      </trkpt>
      <trkpt lat="44.57623" lon="5.84433">
        <ele>1269.08</ele>
        <time>2015-11-23T13:43:47Z</time>
      </trkpt>
      <trkpt lat="44.57614" lon="5.84427">
        <ele>1271</ele>
        <time>2015-11-23T13:44:00Z</time>
      </trkpt>
      <trkpt lat="44.57612" lon="5.84425">
        <ele>1271.48</ele>
        <time>2015-11-23T13:44:02Z</time>
      </trkpt>
      <trkpt lat="44.57609" lon="5.84422">
        <ele>1272.92</ele>
        <time>2015-11-23T13:44:09Z</time>
      </trkpt>
      <trkpt lat="44.57599" lon="5.8442">
        <ele>1272.92</ele>
        <time>2015-11-23T13:44:20Z</time>
      </trkpt>
      <trkpt lat="44.57594" lon="5.84418">
        <ele>1272.92</ele>
        <time>2015-11-23T13:44:25Z</time>
      </trkpt>
      <trkpt lat="44.57589" lon="5.84416">
        <ele>1273.88</ele>
        <time>2015-11-23T13:44:29Z</time>
      </trkpt>
      <trkpt lat="44.57577" lon="5.84412">
        <ele>1275.33</ele>
        <time>2015-11-23T13:44:40Z</time>
      </trkpt>
      <trkpt lat="44.57576" lon="5.84412">
        <ele>1273.88</ele>
        <time>2015-11-23T13:44:41Z</time>
      </trkpt>
      <trkpt lat="44.57571" lon="5.84412">
        <ele>1275.81</ele>
        <time>2015-11-23T13:44:45Z</time>
      </trkpt>
      <trkpt lat="44.57561" lon="5.84406">
        <ele>1275.81</ele>
        <time>2015-11-23T13:45:00Z</time>
      </trkpt>
      <trkpt lat="44.57547" lon="5.84405">
        <ele>1276.77</ele>
        <time>2015-11-23T13:45:12Z</time>
      </trkpt>
      <trkpt lat="44.57542" lon="5.84403">
        <ele>1277.73</ele>
        <time>2015-11-23T13:45:27Z</time>
      </trkpt>
      <trkpt lat="44.57535" lon="5.84401">
        <ele>1279.17</ele>
        <time>2015-11-23T13:45:32Z</time>
      </trkpt>
      <trkpt lat="44.5752" lon="5.84398">
        <ele>1279.17</ele>
        <time>2015-11-23T13:45:45Z</time>
      </trkpt>
      <trkpt lat="44.57505" lon="5.84394">
        <ele>1279.65</ele>
        <time>2015-11-23T13:45:59Z</time>
      </trkpt>
      <trkpt lat="44.57493" lon="5.8439">
        <ele>1281.57</ele>
        <time>2015-11-23T13:46:13Z</time>
      </trkpt>
      <trkpt lat="44.57484" lon="5.84388">
        <ele>1283.02</ele>
        <time>2015-11-23T13:46:25Z</time>
      </trkpt>
      <trkpt lat="44.57474" lon="5.84382">
        <ele>1284.46</ele>
        <time>2015-11-23T13:46:40Z</time>
      </trkpt>
      <trkpt lat="44.57461" lon="5.84379">
        <ele>1284.94</ele>
        <time>2015-11-23T13:46:54Z</time>
      </trkpt>
      <trkpt lat="44.57455" lon="5.84379">
        <ele>1285.9</ele>
        <time>2015-11-23T13:46:59Z</time>
      </trkpt>
      <trkpt lat="44.57442" lon="5.84373">
        <ele>1285.42</ele>
        <time>2015-11-23T13:47:13Z</time>
      </trkpt>
      <trkpt lat="44.57433" lon="5.84372">
        <ele>1287.82</ele>
        <time>2015-11-23T13:47:22Z</time>
      </trkpt>
      <trkpt lat="44.57422" lon="5.84367">
        <ele>1288.3</ele>
        <time>2015-11-23T13:47:33Z</time>
      </trkpt>
      <trkpt lat="44.5741" lon="5.84361">
        <ele>1287.82</ele>
        <time>2015-11-23T13:47:47Z</time>
      </trkpt>
      <trkpt lat="44.57408" lon="5.8436">
        <ele>1289.27</ele>
        <time>2015-11-23T13:47:50Z</time>
      </trkpt>
      <trkpt lat="44.57397" lon="5.84355">
        <ele>1290.23</ele>
        <time>2015-11-23T13:48:03Z</time>
      </trkpt>
      <trkpt lat="44.57386" lon="5.8435">
        <ele>1292.15</ele>
        <time>2015-11-23T13:48:18Z</time>
      </trkpt>
      <trkpt lat="44.57382" lon="5.8435">
        <ele>1292.63</ele>
        <time>2015-11-23T13:48:22Z</time>
      </trkpt>
      <trkpt lat="44.57372" lon="5.84346">
        <ele>1293.59</ele>
        <time>2015-11-23T13:48:31Z</time>
      </trkpt>
      <trkpt lat="44.57369" lon="5.84345">
        <ele>1293.11</ele>
        <time>2015-11-23T13:48:33Z</time>
      </trkpt>
      <trkpt lat="44.57368" lon="5.84345">
        <ele>1292.63</ele>
        <time>2015-11-23T13:48:35Z</time>
      </trkpt>
      <trkpt lat="44.57356" lon="5.84343">
        <ele>1293.59</ele>
        <time>2015-11-23T13:48:44Z</time>
      </trkpt>
      <trkpt lat="44.57352" lon="5.84343">
        <ele>1294.55</ele>
        <time>2015-11-23T13:48:48Z</time>
      </trkpt>
      <trkpt lat="44.57338" lon="5.8434">
        <ele>1293.59</ele>
        <time>2015-11-23T13:49:03Z</time>
      </trkpt>
      <trkpt lat="44.5733" lon="5.84339">
        <ele>1294.55</ele>
        <time>2015-11-23T13:49:11Z</time>
      </trkpt>
      <trkpt lat="44.57314" lon="5.8434">
        <ele>1293.11</ele>
        <time>2015-11-23T13:49:24Z</time>
      </trkpt>
      <trkpt lat="44.57302" lon="5.84342">
        <ele>1295.51</ele>
        <time>2015-11-23T13:49:36Z</time>
      </trkpt>
      <trkpt lat="44.57286" lon="5.84345">
        <ele>1295.51</ele>
        <time>2015-11-23T13:49:50Z</time>
      </trkpt>
      <trkpt lat="44.5728" lon="5.84346">
        <ele>1296.48</ele>
        <time>2015-11-23T13:49:55Z</time>
      </trkpt>
      <trkpt lat="44.57266" lon="5.84348">
        <ele>1296.96</ele>
        <time>2015-11-23T13:50:09Z</time>
      </trkpt>
      <trkpt lat="44.57254" lon="5.84348">
        <ele>1297.92</ele>
        <time>2015-11-23T13:50:22Z</time>
      </trkpt>
      <trkpt lat="44.57239" lon="5.84348">
        <ele>1297.92</ele>
        <time>2015-11-23T13:50:36Z</time>
      </trkpt>
      <trkpt lat="44.57235" lon="5.84348">
        <ele>1297.44</ele>
        <time>2015-11-23T13:50:40Z</time>
      </trkpt>
      <trkpt lat="44.57233" lon="5.84348">
        <ele>1298.88</ele>
        <time>2015-11-23T13:50:42Z</time>
      </trkpt>
      <trkpt lat="44.57231" lon="5.84348">
        <ele>1296.96</ele>
        <time>2015-11-23T13:50:44Z</time>
      </trkpt>
      <trkpt lat="44.57218" lon="5.84345">
        <ele>1296.96</ele>
        <time>2015-11-23T13:50:57Z</time>
      </trkpt>
      <trkpt lat="44.57204" lon="5.84343">
        <ele>1298.88</ele>
        <time>2015-11-23T13:51:11Z</time>
      </trkpt>
      <trkpt lat="44.57193" lon="5.84343">
        <ele>1298.4</ele>
        <time>2015-11-23T13:51:23Z</time>
      </trkpt>
      <trkpt lat="44.57181" lon="5.84344">
        <ele>1299.84</ele>
        <time>2015-11-23T13:51:35Z</time>
      </trkpt>
      <trkpt lat="44.57169" lon="5.84346">
        <ele>1301.28</ele>
        <time>2015-11-23T13:51:49Z</time>
      </trkpt>
      <trkpt lat="44.57156" lon="5.84345">
        <ele>1301.28</ele>
        <time>2015-11-23T13:52:03Z</time>
      </trkpt>
      <trkpt lat="44.57144" lon="5.84347">
        <ele>1301.28</ele>
        <time>2015-11-23T13:52:17Z</time>
      </trkpt>
      <trkpt lat="44.57132" lon="5.84347">
        <ele>1304.17</ele>
        <time>2015-11-23T13:52:32Z</time>
      </trkpt>
      <trkpt lat="44.57117" lon="5.8435">
        <ele>1305.13</ele>
        <time>2015-11-23T13:52:48Z</time>
      </trkpt>
      <trkpt lat="44.57106" lon="5.84352">
        <ele>1303.2</ele>
        <time>2015-11-23T13:52:59Z</time>
      </trkpt>
      <trkpt lat="44.57093" lon="5.84353">
        <ele>1305.13</ele>
        <time>2015-11-23T13:53:12Z</time>
      </trkpt>
      <trkpt lat="44.57081" lon="5.84353">
        <ele>1305.61</ele>
        <time>2015-11-23T13:53:23Z</time>
      </trkpt>
      <trkpt lat="44.57068" lon="5.84354">
        <ele>1306.09</ele>
        <time>2015-11-23T13:53:38Z</time>
      </trkpt>
      <trkpt lat="44.57055" lon="5.84354">
        <ele>1307.05</ele>
        <time>2015-11-23T13:53:52Z</time>
      </trkpt>
      <trkpt lat="44.57044" lon="5.84355">
        <ele>1307.05</ele>
        <time>2015-11-23T13:54:03Z</time>
      </trkpt>
      <trkpt lat="44.57039" lon="5.84356">
        <ele>1308.49</ele>
        <time>2015-11-23T13:54:09Z</time>
      </trkpt>
      <trkpt lat="44.57029" lon="5.84356">
        <ele>1308.97</ele>
        <time>2015-11-23T13:54:20Z</time>
      </trkpt>
      <trkpt lat="44.57015" lon="5.84356">
        <ele>1308.49</ele>
        <time>2015-11-23T13:54:34Z</time>
      </trkpt>
      <trkpt lat="44.57007" lon="5.84357">
        <ele>1309.45</ele>
        <time>2015-11-23T13:54:46Z</time>
      </trkpt>
      <trkpt lat="44.56992" lon="5.84357">
        <ele>1312.34</ele>
        <time>2015-11-23T13:55:02Z</time>
      </trkpt>
      <trkpt lat="44.56983" lon="5.84357">
        <ele>1312.34</ele>
        <time>2015-11-23T13:55:12Z</time>
      </trkpt>
      <trkpt lat="44.56972" lon="5.84358">
        <ele>1313.3</ele>
        <time>2015-11-23T13:55:25Z</time>
      </trkpt>
      <trkpt lat="44.56961" lon="5.84359">
        <ele>1315.7</ele>
        <time>2015-11-23T13:55:39Z</time>
      </trkpt>
      <trkpt lat="44.5695" lon="5.84359">
        <ele>1317.14</ele>
        <time>2015-11-23T13:55:52Z</time>
      </trkpt>
      <trkpt lat="44.56941" lon="5.84359">
        <ele>1316.18</ele>
        <time>2015-11-23T13:56:02Z</time>
      </trkpt>
      <trkpt lat="44.56937" lon="5.84358">
        <ele>1317.62</ele>
        <time>2015-11-23T13:56:08Z</time>
      </trkpt>
      <trkpt lat="44.56934" lon="5.84359">
        <ele>1318.59</ele>
        <time>2015-11-23T13:56:11Z</time>
      </trkpt>
      <trkpt lat="44.56929" lon="5.8436">
        <ele>1318.59</ele>
        <time>2015-11-23T13:56:16Z</time>
      </trkpt>
      <trkpt lat="44.5692" lon="5.84362">
        <ele>1318.1</ele>
        <time>2015-11-23T13:56:28Z</time>
      </trkpt>
      <trkpt lat="44.56919" lon="5.84363">
        <ele>1319.07</ele>
        <time>2015-11-23T13:56:31Z</time>
      </trkpt>
      <trkpt lat="44.56907" lon="5.84367">
        <ele>1320.51</ele>
        <time>2015-11-23T13:56:45Z</time>
      </trkpt>
      <trkpt lat="44.56895" lon="5.8437">
        <ele>1320.99</ele>
        <time>2015-11-23T13:56:59Z</time>
      </trkpt>
      <trkpt lat="44.56889" lon="5.84373">
        <ele>1321.47</ele>
        <time>2015-11-23T13:57:07Z</time>
      </trkpt>
      <trkpt lat="44.56878" lon="5.84374">
        <ele>1321.95</ele>
        <time>2015-11-23T13:57:18Z</time>
      </trkpt>
      <trkpt lat="44.56868" lon="5.84374">
        <ele>1323.39</ele>
        <time>2015-11-23T13:57:30Z</time>
      </trkpt>
      <trkpt lat="44.56854" lon="5.84374">
        <ele>1324.35</ele>
        <time>2015-11-23T13:57:46Z</time>
      </trkpt>
      <trkpt lat="44.56846" lon="5.84373">
        <ele>1326.28</ele>
        <time>2015-11-23T13:57:58Z</time>
      </trkpt>
      <trkpt lat="44.56845" lon="5.84372">
        <ele>1324.83</ele>
        <time>2015-11-23T13:58:00Z</time>
      </trkpt>
      <trkpt lat="44.56843" lon="5.8437">
        <ele>1326.76</ele>
        <time>2015-11-23T13:58:12Z</time>
      </trkpt>
      <trkpt lat="44.5684" lon="5.84369">
        <ele>1326.28</ele>
        <time>2015-11-23T13:58:16Z</time>
      </trkpt>
      <trkpt lat="44.56826" lon="5.84363">
        <ele>1329.64</ele>
        <time>2015-11-23T13:58:29Z</time>
      </trkpt>
      <trkpt lat="44.56822" lon="5.84361">
        <ele>1330.6</ele>
        <time>2015-11-23T13:58:43Z</time>
      </trkpt>
      <trkpt lat="44.56822" lon="5.84361">
        <ele>1326.28</ele>
        <time>2015-11-23T13:58:50Z</time>
      </trkpt>
      <trkpt lat="44.56822" lon="5.84361">
        <ele>1330.12</ele>
        <time>2015-11-23T13:58:51Z</time>
      </trkpt>
      <trkpt lat="44.56821" lon="5.84361">
        <ele>1330.12</ele>
        <time>2015-11-23T13:59:08Z</time>
      </trkpt>
      <trkpt lat="44.56819" lon="5.8436">
        <ele>1329.64</ele>
        <time>2015-11-23T13:59:22Z</time>
      </trkpt>
      <trkpt lat="44.56821" lon="5.84359">
        <ele>1331.56</ele>
        <time>2015-11-23T13:59:25Z</time>
      </trkpt>
      <trkpt lat="44.56829" lon="5.84355">
        <ele>1330.12</ele>
        <time>2015-11-23T13:59:39Z</time>
      </trkpt>
      <trkpt lat="44.56834" lon="5.84353">
        <ele>1333.49</ele>
        <time>2015-11-23T13:59:45Z</time>
      </trkpt>
      <trkpt lat="44.56838" lon="5.84354">
        <ele>1333.49</ele>
        <time>2015-11-23T13:59:51Z</time>
      </trkpt>
      <trkpt lat="44.56845" lon="5.84355">
        <ele>1334.93</ele>
        <time>2015-11-23T14:00:08Z</time>
      </trkpt>
      <trkpt lat="44.56859" lon="5.84352">
        <ele>1335.41</ele>
        <time>2015-11-23T14:00:23Z</time>
      </trkpt>
      <trkpt lat="44.56867" lon="5.84349">
        <ele>1338.29</ele>
        <time>2015-11-23T14:00:34Z</time>
      </trkpt>
      <trkpt lat="44.56869" lon="5.84348">
        <ele>1335.41</ele>
        <time>2015-11-23T14:00:36Z</time>
      </trkpt>
      <trkpt lat="44.56882" lon="5.84343">
        <ele>1338.29</ele>
        <time>2015-11-23T14:00:48Z</time>
      </trkpt>
      <trkpt lat="44.56893" lon="5.84337">
        <ele>1337.33</ele>
        <time>2015-11-23T14:01:02Z</time>
      </trkpt>
      <trkpt lat="44.56906" lon="5.8433">
        <ele>1338.29</ele>
        <time>2015-11-23T14:01:16Z</time>
      </trkpt>
      <trkpt lat="44.56909" lon="5.8433">
        <ele>1339.25</ele>
        <time>2015-11-23T14:01:19Z</time>
      </trkpt>
      <trkpt lat="44.56919" lon="5.84323">
        <ele>1339.25</ele>
        <time>2015-11-23T14:01:33Z</time>
      </trkpt>
      <trkpt lat="44.5693" lon="5.84315">
        <ele>1340.22</ele>
        <time>2015-11-23T14:01:47Z</time>
      </trkpt>
      <trkpt lat="44.56941" lon="5.84308">
        <ele>1342.14</ele>
        <time>2015-11-23T14:02:02Z</time>
      </trkpt>
      <trkpt lat="44.56953" lon="5.84302">
        <ele>1341.66</ele>
        <time>2015-11-23T14:02:18Z</time>
      </trkpt>
      <trkpt lat="44.56956" lon="5.84302">
        <ele>1341.18</ele>
        <time>2015-11-23T14:02:23Z</time>
      </trkpt>
      <trkpt lat="44.56958" lon="5.84301">
        <ele>1343.1</ele>
        <time>2015-11-23T14:02:25Z</time>
      </trkpt>
      <trkpt lat="44.56971" lon="5.84294">
        <ele>1343.58</ele>
        <time>2015-11-23T14:02:40Z</time>
      </trkpt>
      <trkpt lat="44.56984" lon="5.84291">
        <ele>1343.1</ele>
        <time>2015-11-23T14:02:54Z</time>
      </trkpt>
      <trkpt lat="44.56986" lon="5.8429">
        <ele>1344.54</ele>
        <time>2015-11-23T14:02:56Z</time>
      </trkpt>
      <trkpt lat="44.57" lon="5.84288">
        <ele>1344.54</ele>
        <time>2015-11-23T14:03:09Z</time>
      </trkpt>
      <trkpt lat="44.57008" lon="5.84285">
        <ele>1345.02</ele>
        <time>2015-11-23T14:03:20Z</time>
      </trkpt>
      <trkpt lat="44.57023" lon="5.84282">
        <ele>1345.5</ele>
        <time>2015-11-23T14:03:35Z</time>
      </trkpt>
      <trkpt lat="44.57036" lon="5.84279">
        <ele>1347.43</ele>
        <time>2015-11-23T14:03:49Z</time>
      </trkpt>
      <trkpt lat="44.57049" lon="5.84278">
        <ele>1346.46</ele>
        <time>2015-11-23T14:04:03Z</time>
      </trkpt>
      <trkpt lat="44.57054" lon="5.84277">
        <ele>1347.43</ele>
        <time>2015-11-23T14:04:11Z</time>
      </trkpt>
      <trkpt lat="44.57056" lon="5.84277">
        <ele>1346.46</ele>
        <time>2015-11-23T14:04:13Z</time>
      </trkpt>
      <trkpt lat="44.57067" lon="5.84274">
        <ele>1347.43</ele>
        <time>2015-11-23T14:04:25Z</time>
      </trkpt>
      <trkpt lat="44.57082" lon="5.84275">
        <ele>1346.46</ele>
        <time>2015-11-23T14:04:38Z</time>
      </trkpt>
      <trkpt lat="44.57097" lon="5.8427">
        <ele>1347.91</ele>
        <time>2015-11-23T14:04:56Z</time>
      </trkpt>
      <trkpt lat="44.571" lon="5.84269">
        <ele>1345.98</ele>
        <time>2015-11-23T14:04:59Z</time>
      </trkpt>
      <trkpt lat="44.57103" lon="5.84269">
        <ele>1346.94</ele>
        <time>2015-11-23T14:05:02Z</time>
      </trkpt>
      <trkpt lat="44.57116" lon="5.84267">
        <ele>1346.46</ele>
        <time>2015-11-23T14:05:16Z</time>
      </trkpt>
      <trkpt lat="44.57119" lon="5.84265">
        <ele>1347.43</ele>
        <time>2015-11-23T14:05:19Z</time>
      </trkpt>
      <trkpt lat="44.57135" lon="5.84258">
        <ele>1347.91</ele>
        <time>2015-11-23T14:05:34Z</time>
      </trkpt>
      <trkpt lat="44.57146" lon="5.84255">
        <ele>1348.87</ele>
        <time>2015-11-23T14:05:45Z</time>
      </trkpt>
      <trkpt lat="44.57155" lon="5.84249">
        <ele>1349.83</ele>
        <time>2015-11-23T14:05:59Z</time>
      </trkpt>
      <trkpt lat="44.57165" lon="5.84242">
        <ele>1351.27</ele>
        <time>2015-11-23T14:06:14Z</time>
      </trkpt>
      <trkpt lat="44.57176" lon="5.84235">
        <ele>1351.75</ele>
        <time>2015-11-23T14:06:30Z</time>
      </trkpt>
      <trkpt lat="44.5718" lon="5.84233">
        <ele>1351.27</ele>
        <time>2015-11-23T14:06:36Z</time>
      </trkpt>
      <trkpt lat="44.57181" lon="5.84232">
        <ele>1354.63</ele>
        <time>2015-11-23T14:06:38Z</time>
      </trkpt>
      <trkpt lat="44.57182" lon="5.8423">
        <ele>1350.79</ele>
        <time>2015-11-23T14:06:40Z</time>
      </trkpt>
      <trkpt lat="44.57184" lon="5.8423">
        <ele>1353.67</ele>
        <time>2015-11-23T14:06:42Z</time>
      </trkpt>
      <trkpt lat="44.57184" lon="5.84229">
        <ele>1354.63</ele>
        <time>2015-11-23T14:06:44Z</time>
      </trkpt>
      <trkpt lat="44.57196" lon="5.84224">
        <ele>1354.63</ele>
        <time>2015-11-23T14:06:59Z</time>
      </trkpt>
      <trkpt lat="44.57205" lon="5.84218">
        <ele>1356.56</ele>
        <time>2015-11-23T14:07:16Z</time>
      </trkpt>
      <trkpt lat="44.57217" lon="5.8421">
        <ele>1358</ele>
        <time>2015-11-23T14:07:29Z</time>
      </trkpt>
      <trkpt lat="44.57218" lon="5.84205">
        <ele>1359.44</ele>
        <time>2015-11-23T14:07:57Z</time>
      </trkpt>
      <trkpt lat="44.57218" lon="5.84199">
        <ele>1361.84</ele>
        <time>2015-11-23T14:08:04Z</time>
      </trkpt>
      <trkpt lat="44.5721" lon="5.84187">
        <ele>1363.29</ele>
        <time>2015-11-23T14:08:20Z</time>
      </trkpt>
      <trkpt lat="44.57204" lon="5.8418">
        <ele>1364.73</ele>
        <time>2015-11-23T14:08:33Z</time>
      </trkpt>
      <trkpt lat="44.57205" lon="5.84175">
        <ele>1365.21</ele>
        <time>2015-11-23T14:08:37Z</time>
      </trkpt>
      <trkpt lat="44.57208" lon="5.84161">
        <ele>1367.61</ele>
        <time>2015-11-23T14:08:50Z</time>
      </trkpt>
      <trkpt lat="44.57206" lon="5.84149">
        <ele>1367.13</ele>
        <time>2015-11-23T14:09:05Z</time>
      </trkpt>
      <trkpt lat="44.57206" lon="5.84149">
        <ele>1367.61</ele>
        <time>2015-11-23T14:09:17Z</time>
      </trkpt>
      <trkpt lat="44.57206" lon="5.84149">
        <ele>1366.17</ele>
        <time>2015-11-23T14:09:23Z</time>
      </trkpt>
      <trkpt lat="44.57207" lon="5.84149">
        <ele>1366.17</ele>
        <time>2015-11-23T14:10:03Z</time>
      </trkpt>
      <trkpt lat="44.57208" lon="5.84148">
        <ele>1369.05</ele>
        <time>2015-11-23T14:10:22Z</time>
      </trkpt>
      <trkpt lat="44.57209" lon="5.84147">
        <ele>1365.69</ele>
        <time>2015-11-23T14:10:25Z</time>
      </trkpt>
      <trkpt lat="44.57214" lon="5.84148">
        <ele>1365.69</ele>
        <time>2015-11-23T14:10:36Z</time>
      </trkpt>
      <trkpt lat="44.57226" lon="5.84149">
        <ele>1363.77</ele>
        <time>2015-11-23T14:10:48Z</time>
      </trkpt>
      <trkpt lat="44.57234" lon="5.84153">
        <ele>1364.73</ele>
        <time>2015-11-23T14:11:05Z</time>
      </trkpt>
      <trkpt lat="44.57251" lon="5.84163">
        <ele>1362.33</ele>
        <time>2015-11-23T14:11:17Z</time>
      </trkpt>
      <trkpt lat="44.57253" lon="5.84165">
        <ele>1363.29</ele>
        <time>2015-11-23T14:11:19Z</time>
      </trkpt>
      <trkpt lat="44.57267" lon="5.84171">
        <ele>1363.77</ele>
        <time>2015-11-23T14:11:34Z</time>
      </trkpt>
      <trkpt lat="44.57271" lon="5.84172">
        <ele>1362.33</ele>
        <time>2015-11-23T14:11:39Z</time>
      </trkpt>
      <trkpt lat="44.57282" lon="5.84171">
        <ele>1366.17</ele>
        <time>2015-11-23T14:11:49Z</time>
      </trkpt>
      <trkpt lat="44.57287" lon="5.8417">
        <ele>1365.21</ele>
        <time>2015-11-23T14:11:53Z</time>
      </trkpt>
      <trkpt lat="44.57302" lon="5.84165">
        <ele>1365.21</ele>
        <time>2015-11-23T14:12:08Z</time>
      </trkpt>
      <trkpt lat="44.57315" lon="5.84161">
        <ele>1366.17</ele>
        <time>2015-11-23T14:12:20Z</time>
      </trkpt>
      <trkpt lat="44.57325" lon="5.8416">
        <ele>1367.61</ele>
        <time>2015-11-23T14:12:34Z</time>
      </trkpt>
      <trkpt lat="44.57332" lon="5.84155">
        <ele>1367.61</ele>
        <time>2015-11-23T14:12:46Z</time>
      </trkpt>
      <trkpt lat="44.57335" lon="5.84154">
        <ele>1370.98</ele>
        <time>2015-11-23T14:12:58Z</time>
      </trkpt>
      <trkpt lat="44.57352" lon="5.84146">
        <ele>1370.98</ele>
        <time>2015-11-23T14:13:10Z</time>
      </trkpt>
      <trkpt lat="44.57358" lon="5.84144">
        <ele>1373.38</ele>
        <time>2015-11-23T14:13:20Z</time>
      </trkpt>
      <trkpt lat="44.57359" lon="5.84143">
        <ele>1371.94</ele>
        <time>2015-11-23T14:13:23Z</time>
      </trkpt>
      <trkpt lat="44.57363" lon="5.84142">
        <ele>1374.82</ele>
        <time>2015-11-23T14:13:29Z</time>
      </trkpt>
      <trkpt lat="44.57363" lon="5.84141">
        <ele>1371.46</ele>
        <time>2015-11-23T14:13:32Z</time>
      </trkpt>
      <trkpt lat="44.5737" lon="5.84139">
        <ele>1374.82</ele>
        <time>2015-11-23T14:13:43Z</time>
      </trkpt>
      <trkpt lat="44.57373" lon="5.84138">
        <ele>1375.78</ele>
        <time>2015-11-23T14:14:01Z</time>
      </trkpt>
      <trkpt lat="44.57378" lon="5.84135">
        <ele>1375.3</ele>
        <time>2015-11-23T14:14:30Z</time>
      </trkpt>
      <trkpt lat="44.57381" lon="5.8413">
        <ele>1374.82</ele>
        <time>2015-11-23T14:14:44Z</time>
      </trkpt>
      <trkpt lat="44.57382" lon="5.84126">
        <ele>1375.3</ele>
        <time>2015-11-23T14:15:03Z</time>
      </trkpt>
      <trkpt lat="44.57382" lon="5.84125">
        <ele>1372.9</ele>
        <time>2015-11-23T14:15:14Z</time>
      </trkpt>
      <trkpt lat="44.57383" lon="5.84118">
        <ele>1370.5</ele>
        <time>2015-11-23T14:15:33Z</time>
      </trkpt>
      <trkpt lat="44.57384" lon="5.84116">
        <ele>1371.46</ele>
        <time>2015-11-23T14:15:41Z</time>
      </trkpt>
      <trkpt lat="44.57388" lon="5.84107">
        <ele>1370.5</ele>
        <time>2015-11-23T14:16:16Z</time>
      </trkpt>
      <trkpt lat="44.57388" lon="5.84107">
        <ele>1370.98</ele>
        <time>2015-11-23T14:16:18Z</time>
      </trkpt>
      <trkpt lat="44.57388" lon="5.84107">
        <ele>1370.02</ele>
        <time>2015-11-23T14:16:20Z</time>
      </trkpt>
      <trkpt lat="44.57395" lon="5.84097">
        <ele>1369.05</ele>
        <time>2015-11-23T14:16:17Z</time>
      </trkpt>
      <trkpt lat="44.57399" lon="5.84093">
        <ele>1366.17</ele>
        <time>2015-11-23T14:16:30Z</time>
      </trkpt>
      <trkpt lat="44.57399" lon="5.84093">
        <ele>1369.05</ele>
        <time>2015-11-23T14:16:35Z</time>
      </trkpt>
      <trkpt lat="44.57399" lon="5.84092">
        <ele>1365.69</ele>
        <time>2015-11-23T14:16:54Z</time>
      </trkpt>
      <trkpt lat="44.574" lon="5.84093">
        <ele>1364.25</ele>
        <time>2015-11-23T14:16:59Z</time>
      </trkpt>
      <trkpt lat="44.57402" lon="5.84093">
        <ele>1363.77</ele>
        <time>2015-11-23T14:17:07Z</time>
      </trkpt>
      <trkpt lat="44.57404" lon="5.84093">
        <ele>1363.29</ele>
        <time>2015-11-23T14:17:16Z</time>
      </trkpt>
      <trkpt lat="44.57405" lon="5.84093">
        <ele>1362.81</ele>
        <time>2015-11-23T14:17:39Z</time>
      </trkpt>
      <trkpt lat="44.57405" lon="5.84093">
        <ele>1363.77</ele>
        <time>2015-11-23T14:17:47Z</time>
      </trkpt>
      <trkpt lat="44.57405" lon="5.84093">
        <ele>1362.81</ele>
        <time>2015-11-23T14:18:14Z</time>
      </trkpt>
      <trkpt lat="44.57407" lon="5.84094">
        <ele>1360.88</ele>
        <time>2015-11-23T14:18:27Z</time>
      </trkpt>
      <trkpt lat="44.57407" lon="5.84094">
        <ele>1360.88</ele>
        <time>2015-11-23T14:19:03Z</time>
      </trkpt>
      <trkpt lat="44.57414" lon="5.84088">
        <ele>1359.92</ele>
        <time>2015-11-23T14:19:18Z</time>
      </trkpt>
      <trkpt lat="44.57414" lon="5.84088">
        <ele>1359.44</ele>
        <time>2015-11-23T14:19:45Z</time>
      </trkpt>
      <trkpt lat="44.5742" lon="5.84084">
        <ele>1356.08</ele>
        <time>2015-11-23T14:19:55Z</time>
      </trkpt>
      <trkpt lat="44.57423" lon="5.84082">
        <ele>1357.52</ele>
        <time>2015-11-23T14:20:09Z</time>
      </trkpt>
      <trkpt lat="44.57425" lon="5.84081">
        <ele>1354.15</ele>
        <time>2015-11-23T14:20:19Z</time>
      </trkpt>
      <trkpt lat="44.5743" lon="5.84075">
        <ele>1353.67</ele>
        <time>2015-11-23T14:20:36Z</time>
      </trkpt>
      <trkpt lat="44.57436" lon="5.84071">
        <ele>1352.23</ele>
        <time>2015-11-23T14:20:55Z</time>
      </trkpt>
      <trkpt lat="44.57438" lon="5.8407">
        <ele>1352.71</ele>
        <time>2015-11-23T14:21:03Z</time>
      </trkpt>
      <trkpt lat="44.57438" lon="5.8407">
        <ele>1350.79</ele>
        <time>2015-11-23T14:21:06Z</time>
      </trkpt>
      <trkpt lat="44.57438" lon="5.8407">
        <ele>1350.31</ele>
        <time>2015-11-23T14:21:23Z</time>
      </trkpt>
      <trkpt lat="44.57439" lon="5.8407">
        <ele>1346.94</ele>
        <time>2015-11-23T14:21:47Z</time>
      </trkpt>
      <trkpt lat="44.57439" lon="5.8407">
        <ele>1346.46</ele>
        <time>2015-11-23T14:21:51Z</time>
      </trkpt>
      <trkpt lat="44.57439" lon="5.8407">
        <ele>1345.5</ele>
        <time>2015-11-23T14:22:04Z</time>
      </trkpt>
      <trkpt lat="44.57439" lon="5.8407">
        <ele>1344.06</ele>
        <time>2015-11-23T14:22:19Z</time>
      </trkpt>
      <trkpt lat="44.5744" lon="5.84069">
        <ele>1341.66</ele>
        <time>2015-11-23T14:22:35Z</time>
      </trkpt>
      <trkpt lat="44.5744" lon="5.84069">
        <ele>1342.62</ele>
        <time>2015-11-23T14:22:50Z</time>
      </trkpt>
      <trkpt lat="44.57455" lon="5.84054">
        <ele>1338.77</ele>
        <time>2015-11-23T14:23:03Z</time>
      </trkpt>
      <trkpt lat="44.57461" lon="5.84046">
        <ele>1338.77</ele>
        <time>2015-11-23T14:23:17Z</time>
      </trkpt>
      <trkpt lat="44.57464" lon="5.8404">
        <ele>1336.85</ele>
        <time>2015-11-23T14:23:20Z</time>
      </trkpt>
      <trkpt lat="44.57465" lon="5.84037">
        <ele>1337.33</ele>
        <time>2015-11-23T14:23:22Z</time>
      </trkpt>
      <trkpt lat="44.57479" lon="5.84012">
        <ele>1337.33</ele>
        <time>2015-11-23T14:23:34Z</time>
      </trkpt>
      <trkpt lat="44.57489" lon="5.83989">
        <ele>1335.41</ele>
        <time>2015-11-23T14:23:48Z</time>
      </trkpt>
      <trkpt lat="44.57491" lon="5.83981">
        <ele>1332.52</ele>
        <time>2015-11-23T14:23:59Z</time>
      </trkpt>
      <trkpt lat="44.57494" lon="5.83974">
        <ele>1330.12</ele>
        <time>2015-11-23T14:24:11Z</time>
      </trkpt>
      <trkpt lat="44.57496" lon="5.8397">
        <ele>1332.04</ele>
        <time>2015-11-23T14:24:14Z</time>
      </trkpt>
      <trkpt lat="44.57498" lon="5.8396">
        <ele>1328.68</ele>
        <time>2015-11-23T14:24:25Z</time>
      </trkpt>
      <trkpt lat="44.57499" lon="5.83955">
        <ele>1326.76</ele>
        <time>2015-11-23T14:24:35Z</time>
      </trkpt>
      <trkpt lat="44.57502" lon="5.83951">
        <ele>1327.24</ele>
        <time>2015-11-23T14:24:42Z</time>
      </trkpt>
      <trkpt lat="44.57509" lon="5.83939">
        <ele>1326.76</ele>
        <time>2015-11-23T14:24:56Z</time>
      </trkpt>
      <trkpt lat="44.57512" lon="5.83935">
        <ele>1325.31</ele>
        <time>2015-11-23T14:25:09Z</time>
      </trkpt>
      <trkpt lat="44.57514" lon="5.83932">
        <ele>1321.95</ele>
        <time>2015-11-23T14:25:24Z</time>
      </trkpt>
      <trkpt lat="44.57514" lon="5.83931">
        <ele>1322.43</ele>
        <time>2015-11-23T14:25:25Z</time>
      </trkpt>
      <trkpt lat="44.57516" lon="5.83911">
        <ele>1320.51</ele>
        <time>2015-11-23T14:25:41Z</time>
      </trkpt>
      <trkpt lat="44.57519" lon="5.83903">
        <ele>1317.62</ele>
        <time>2015-11-23T14:25:55Z</time>
      </trkpt>
      <trkpt lat="44.57522" lon="5.83896">
        <ele>1313.3</ele>
        <time>2015-11-23T14:26:08Z</time>
      </trkpt>
      <trkpt lat="44.57528" lon="5.8388">
        <ele>1314.26</ele>
        <time>2015-11-23T14:26:18Z</time>
      </trkpt>
      <trkpt lat="44.57529" lon="5.83875">
        <ele>1312.82</ele>
        <time>2015-11-23T14:26:27Z</time>
      </trkpt>
      <trkpt lat="44.57529" lon="5.8387">
        <ele>1311.38</ele>
        <time>2015-11-23T14:26:38Z</time>
      </trkpt>
      <trkpt lat="44.5753" lon="5.83863">
        <ele>1308.97</ele>
        <time>2015-11-23T14:26:54Z</time>
      </trkpt>
      <trkpt lat="44.57535" lon="5.83855">
        <ele>1307.05</ele>
        <time>2015-11-23T14:27:08Z</time>
      </trkpt>
      <trkpt lat="44.57539" lon="5.83851">
        <ele>1304.17</ele>
        <time>2015-11-23T14:27:24Z</time>
      </trkpt>
      <trkpt lat="44.5755" lon="5.83834">
        <ele>1304.65</ele>
        <time>2015-11-23T14:27:39Z</time>
      </trkpt>
      <trkpt lat="44.57554" lon="5.83826">
        <ele>1303.69</ele>
        <time>2015-11-23T14:27:56Z</time>
      </trkpt>
      <trkpt lat="44.57554" lon="5.83826">
        <ele>1302.72</ele>
        <time>2015-11-23T14:28:09Z</time>
      </trkpt>
      <trkpt lat="44.57556" lon="5.83825">
        <ele>1302.24</ele>
        <time>2015-11-23T14:28:30Z</time>
      </trkpt>
      <trkpt lat="44.57558" lon="5.83824">
        <ele>1299.84</ele>
        <time>2015-11-23T14:28:41Z</time>
      </trkpt>
      <trkpt lat="44.57569" lon="5.83812">
        <ele>1297.92</ele>
        <time>2015-11-23T14:28:55Z</time>
      </trkpt>
      <trkpt lat="44.57569" lon="5.8381">
        <ele>1297.92</ele>
        <time>2015-11-23T14:28:56Z</time>
      </trkpt>
      <trkpt lat="44.57571" lon="5.83798">
        <ele>1298.4</ele>
        <time>2015-11-23T14:29:10Z</time>
      </trkpt>
      <trkpt lat="44.57572" lon="5.83788">
        <ele>1298.4</ele>
        <time>2015-11-23T14:29:23Z</time>
      </trkpt>
      <trkpt lat="44.57574" lon="5.83778">
        <ele>1296.48</ele>
        <time>2015-11-23T14:29:36Z</time>
      </trkpt>
      <trkpt lat="44.57572" lon="5.83771">
        <ele>1295.99</ele>
        <time>2015-11-23T14:30:05Z</time>
      </trkpt>
      <trkpt lat="44.57572" lon="5.83762">
        <ele>1295.03</ele>
        <time>2015-11-23T14:30:15Z</time>
      </trkpt>
      <trkpt lat="44.57574" lon="5.83756">
        <ele>1295.51</ele>
        <time>2015-11-23T14:30:30Z</time>
      </trkpt>
      <trkpt lat="44.57574" lon="5.83754">
        <ele>1292.15</ele>
        <time>2015-11-23T14:30:36Z</time>
      </trkpt>
      <trkpt lat="44.57573" lon="5.83737">
        <ele>1290.71</ele>
        <time>2015-11-23T14:30:52Z</time>
      </trkpt>
      <trkpt lat="44.57573" lon="5.83736">
        <ele>1289.75</ele>
        <time>2015-11-23T14:30:54Z</time>
      </trkpt>
      <trkpt lat="44.57573" lon="5.83734">
        <ele>1289.27</ele>
        <time>2015-11-23T14:30:55Z</time>
      </trkpt>
      <trkpt lat="44.57569" lon="5.83728">
        <ele>1289.75</ele>
        <time>2015-11-23T14:31:00Z</time>
      </trkpt>
      <trkpt lat="44.57563" lon="5.83713">
        <ele>1289.75</ele>
        <time>2015-11-23T14:31:12Z</time>
      </trkpt>
      <trkpt lat="44.57563" lon="5.83707">
        <ele>1288.3</ele>
        <time>2015-11-23T14:31:17Z</time>
      </trkpt>
      <trkpt lat="44.57562" lon="5.83693">
        <ele>1287.82</ele>
        <time>2015-11-23T14:31:29Z</time>
      </trkpt>
      <trkpt lat="44.57561" lon="5.83681">
        <ele>1290.23</ele>
        <time>2015-11-23T14:31:41Z</time>
      </trkpt>
      <trkpt lat="44.57558" lon="5.83667">
        <ele>1290.23</ele>
        <time>2015-11-23T14:31:53Z</time>
      </trkpt>
      <trkpt lat="44.57558" lon="5.83663">
        <ele>1291.19</ele>
        <time>2015-11-23T14:31:57Z</time>
      </trkpt>
      <trkpt lat="44.57557" lon="5.83662">
        <ele>1290.71</ele>
        <time>2015-11-23T14:31:59Z</time>
      </trkpt>
      <trkpt lat="44.57557" lon="5.83659">
        <ele>1292.15</ele>
        <time>2015-11-23T14:32:01Z</time>
      </trkpt>
      <trkpt lat="44.57556" lon="5.83647">
        <ele>1291.19</ele>
        <time>2015-11-23T14:32:14Z</time>
      </trkpt>
      <trkpt lat="44.57557" lon="5.83637">
        <ele>1292.15</ele>
        <time>2015-11-23T14:32:28Z</time>
      </trkpt>
      <trkpt lat="44.57558" lon="5.83633">
        <ele>1290.71</ele>
        <time>2015-11-23T14:32:30Z</time>
      </trkpt>
      <trkpt lat="44.57561" lon="5.83608">
        <ele>1291.67</ele>
        <time>2015-11-23T14:32:46Z</time>
      </trkpt>
      <trkpt lat="44.57567" lon="5.83595">
        <ele>1288.78</ele>
        <time>2015-11-23T14:32:56Z</time>
      </trkpt>
      <trkpt lat="44.57571" lon="5.83578">
        <ele>1287.82</ele>
        <time>2015-11-23T14:33:10Z</time>
      </trkpt>
      <trkpt lat="44.57581" lon="5.83568">
        <ele>1286.86</ele>
        <time>2015-11-23T14:33:24Z</time>
      </trkpt>
      <trkpt lat="44.57587" lon="5.83556">
        <ele>1285.9</ele>
        <time>2015-11-23T14:33:37Z</time>
      </trkpt>
      <trkpt lat="44.5759" lon="5.8355">
        <ele>1284.46</ele>
        <time>2015-11-23T14:33:41Z</time>
      </trkpt>
      <trkpt lat="44.57598" lon="5.83534">
        <ele>1285.42</ele>
        <time>2015-11-23T14:33:55Z</time>
      </trkpt>
      <trkpt lat="44.57606" lon="5.83521">
        <ele>1285.42</ele>
        <time>2015-11-23T14:34:10Z</time>
      </trkpt>
      <trkpt lat="44.57607" lon="5.83519">
        <ele>1286.86</ele>
        <time>2015-11-23T14:34:12Z</time>
      </trkpt>
      <trkpt lat="44.57613" lon="5.83512">
        <ele>1284.94</ele>
        <time>2015-11-23T14:34:23Z</time>
      </trkpt>
      <trkpt lat="44.57618" lon="5.83508">
        <ele>1285.42</ele>
        <time>2015-11-23T14:34:29Z</time>
      </trkpt>
      <trkpt lat="44.57621" lon="5.83506">
        <ele>1284.94</ele>
        <time>2015-11-23T14:34:32Z</time>
      </trkpt>
      <trkpt lat="44.57636" lon="5.83493">
        <ele>1285.9</ele>
        <time>2015-11-23T14:34:46Z</time>
      </trkpt>
      <trkpt lat="44.57648" lon="5.83481">
        <ele>1285.9</ele>
        <time>2015-11-23T14:35:00Z</time>
      </trkpt>
      <trkpt lat="44.57651" lon="5.83479">
        <ele>1287.82</ele>
        <time>2015-11-23T14:35:03Z</time>
      </trkpt>
      <trkpt lat="44.57661" lon="5.83466">
        <ele>1287.82</ele>
        <time>2015-11-23T14:35:19Z</time>
      </trkpt>
      <trkpt lat="44.57662" lon="5.83464">
        <ele>1289.27</ele>
        <time>2015-11-23T14:35:21Z</time>
      </trkpt>
      <trkpt lat="44.57669" lon="5.83454">
        <ele>1290.23</ele>
        <time>2015-11-23T14:35:36Z</time>
      </trkpt>
      <trkpt lat="44.57677" lon="5.83444">
        <ele>1289.27</ele>
        <time>2015-11-23T14:35:51Z</time>
      </trkpt>
      <trkpt lat="44.57678" lon="5.83442">
        <ele>1290.71</ele>
        <time>2015-11-23T14:35:53Z</time>
      </trkpt>
      <trkpt lat="44.57684" lon="5.83435">
        <ele>1290.23</ele>
        <time>2015-11-23T14:36:00Z</time>
      </trkpt>
      <trkpt lat="44.57686" lon="5.83433">
        <ele>1289.27</ele>
        <time>2015-11-23T14:36:04Z</time>
      </trkpt>
      <trkpt lat="44.57688" lon="5.83431">
        <ele>1291.19</ele>
        <time>2015-11-23T14:36:07Z</time>
      </trkpt>
      <trkpt lat="44.57697" lon="5.83424">
        <ele>1292.15</ele>
        <time>2015-11-23T14:36:20Z</time>
      </trkpt>
      <trkpt lat="44.57701" lon="5.83417">
        <ele>1290.71</ele>
        <time>2015-11-23T14:36:33Z</time>
      </trkpt>
      <trkpt lat="44.57701" lon="5.83417">
        <ele>1289.27</ele>
        <time>2015-11-23T14:36:48Z</time>
      </trkpt>
      <trkpt lat="44.57701" lon="5.83417">
        <ele>1285.9</ele>
        <time>2015-11-23T14:36:58Z</time>
      </trkpt>
      <trkpt lat="44.577" lon="5.83416">
        <ele>1283.5</ele>
        <time>2015-11-23T14:37:06Z</time>
      </trkpt>
      <trkpt lat="44.577" lon="5.83416">
        <ele>1282.54</ele>
        <time>2015-11-23T14:37:12Z</time>
      </trkpt>
      <trkpt lat="44.577" lon="5.83416">
        <ele>1284.46</ele>
        <time>2015-11-23T14:37:14Z</time>
      </trkpt>
      <trkpt lat="44.577" lon="5.83416">
        <ele>1281.09</ele>
        <time>2015-11-23T14:37:24Z</time>
      </trkpt>
      <trkpt lat="44.577" lon="5.83416">
        <ele>1281.57</ele>
        <time>2015-11-23T14:37:25Z</time>
      </trkpt>
      <trkpt lat="44.57694" lon="5.83408">
        <ele>1280.13</ele>
        <time>2015-11-23T14:37:34Z</time>
      </trkpt>
      <trkpt lat="44.57693" lon="5.83405">
        <ele>1279.17</ele>
        <time>2015-11-23T14:37:48Z</time>
      </trkpt>
      <trkpt lat="44.57682" lon="5.83383">
        <ele>1276.77</ele>
        <time>2015-11-23T14:38:04Z</time>
      </trkpt>
      <trkpt lat="44.57678" lon="5.8337">
        <ele>1276.77</ele>
        <time>2015-11-23T14:38:09Z</time>
      </trkpt>
      <trkpt lat="44.57679" lon="5.83353">
        <ele>1275.33</ele>
        <time>2015-11-23T14:38:16Z</time>
      </trkpt>
      <trkpt lat="44.57678" lon="5.83349">
        <ele>1276.77</ele>
        <time>2015-11-23T14:38:20Z</time>
      </trkpt>
      <trkpt lat="44.57679" lon="5.83335">
        <ele>1278.21</ele>
        <time>2015-11-23T14:38:29Z</time>
      </trkpt>
      <trkpt lat="44.57684" lon="5.83318">
        <ele>1275.81</ele>
        <time>2015-11-23T14:38:40Z</time>
      </trkpt>
      <trkpt lat="44.57686" lon="5.83314">
        <ele>1273.4</ele>
        <time>2015-11-23T14:38:54Z</time>
      </trkpt>
      <trkpt lat="44.57686" lon="5.83314">
        <ele>1271.96</ele>
        <time>2015-11-23T14:39:08Z</time>
      </trkpt>
      <trkpt lat="44.57686" lon="5.83314">
        <ele>1269.56</ele>
        <time>2015-11-23T14:39:20Z</time>
      </trkpt>
      <trkpt lat="44.57686" lon="5.83311">
        <ele>1267.16</ele>
        <time>2015-11-23T14:39:27Z</time>
      </trkpt>
      <trkpt lat="44.57685" lon="5.83303">
        <ele>1265.71</ele>
        <time>2015-11-23T14:39:37Z</time>
      </trkpt>
      <trkpt lat="44.57685" lon="5.83292">
        <ele>1263.31</ele>
        <time>2015-11-23T14:39:44Z</time>
      </trkpt>
      <trkpt lat="44.57686" lon="5.83286">
        <ele>1262.83</ele>
        <time>2015-11-23T14:39:58Z</time>
      </trkpt>
      <trkpt lat="44.57686" lon="5.83286">
        <ele>1260.91</ele>
        <time>2015-11-23T14:40:01Z</time>
      </trkpt>
      <trkpt lat="44.57686" lon="5.83286">
        <ele>1257.54</ele>
        <time>2015-11-23T14:40:14Z</time>
      </trkpt>
      <trkpt lat="44.57686" lon="5.83286">
        <ele>1257.54</ele>
        <time>2015-11-23T14:40:15Z</time>
      </trkpt>
      <trkpt lat="44.5769" lon="5.83276">
        <ele>1257.54</ele>
        <time>2015-11-23T14:40:21Z</time>
      </trkpt>
      <trkpt lat="44.57701" lon="5.83253">
        <ele>1259.94</ele>
        <time>2015-11-23T14:40:33Z</time>
      </trkpt>
      <trkpt lat="44.57706" lon="5.83242">
        <ele>1258.5</ele>
        <time>2015-11-23T14:40:38Z</time>
      </trkpt>
      <trkpt lat="44.57712" lon="5.83223">
        <ele>1256.58</ele>
        <time>2015-11-23T14:40:51Z</time>
      </trkpt>
      <trkpt lat="44.57714" lon="5.83219">
        <ele>1256.1</ele>
        <time>2015-11-23T14:40:57Z</time>
      </trkpt>
      <trkpt lat="44.57714" lon="5.83219">
        <ele>1254.66</ele>
        <time>2015-11-23T14:41:07Z</time>
      </trkpt>
      <trkpt lat="44.57718" lon="5.8321">
        <ele>1253.7</ele>
        <time>2015-11-23T14:41:20Z</time>
      </trkpt>
      <trkpt lat="44.57722" lon="5.83206">
        <ele>1251.29</ele>
        <time>2015-11-23T14:41:31Z</time>
      </trkpt>
      <trkpt lat="44.5773" lon="5.83198">
        <ele>1247.93</ele>
        <time>2015-11-23T14:41:41Z</time>
      </trkpt>
      <trkpt lat="44.57731" lon="5.83198">
        <ele>1251.29</ele>
        <time>2015-11-23T14:41:42Z</time>
      </trkpt>
      <trkpt lat="44.57736" lon="5.8319">
        <ele>1248.41</ele>
        <time>2015-11-23T14:41:53Z</time>
      </trkpt>
      <trkpt lat="44.57736" lon="5.8319">
        <ele>1250.81</ele>
        <time>2015-11-23T14:41:55Z</time>
      </trkpt>
      <trkpt lat="44.57736" lon="5.8319">
        <ele>1248.89</ele>
        <time>2015-11-23T14:42:08Z</time>
      </trkpt>
      <trkpt lat="44.57742" lon="5.83176">
        <ele>1250.81</ele>
        <time>2015-11-23T14:42:25Z</time>
      </trkpt>
      <trkpt lat="44.57747" lon="5.83173">
        <ele>1250.81</ele>
        <time>2015-11-23T14:42:28Z</time>
      </trkpt>
      <trkpt lat="44.57773" lon="5.83151">
        <ele>1251.29</ele>
        <time>2015-11-23T14:42:42Z</time>
      </trkpt>
      <trkpt lat="44.57789" lon="5.83136">
        <ele>1248.41</ele>
        <time>2015-11-23T14:42:55Z</time>
      </trkpt>
      <trkpt lat="44.57802" lon="5.83123">
        <ele>1249.37</ele>
        <time>2015-11-23T14:43:08Z</time>
      </trkpt>
      <trkpt lat="44.57812" lon="5.8311">
        <ele>1248.41</ele>
        <time>2015-11-23T14:43:19Z</time>
      </trkpt>
      <trkpt lat="44.57818" lon="5.83101">
        <ele>1246.49</ele>
        <time>2015-11-23T14:43:33Z</time>
      </trkpt>
      <trkpt lat="44.57828" lon="5.83085">
        <ele>1246.01</ele>
        <time>2015-11-23T14:43:46Z</time>
      </trkpt>
      <trkpt lat="44.57829" lon="5.83082">
        <ele>1246.49</ele>
        <time>2015-11-23T14:43:57Z</time>
      </trkpt>
      <trkpt lat="44.57832" lon="5.83078">
        <ele>1245.53</ele>
        <time>2015-11-23T14:44:00Z</time>
      </trkpt>
      <trkpt lat="44.57849" lon="5.83061">
        <ele>1246.49</ele>
        <time>2015-11-23T14:44:16Z</time>
      </trkpt>
      <trkpt lat="44.57855" lon="5.83061">
        <ele>1251.29</ele>
        <time>2015-11-23T14:44:27Z</time>
      </trkpt>
      <trkpt lat="44.57861" lon="5.83063">
        <ele>1250.81</ele>
        <time>2015-11-23T14:44:32Z</time>
      </trkpt>
      <trkpt lat="44.57873" lon="5.83058">
        <ele>1252.25</ele>
        <time>2015-11-23T14:44:46Z</time>
      </trkpt>
      <trkpt lat="44.57874" lon="5.83058">
        <ele>1251.77</ele>
        <time>2015-11-23T14:44:47Z</time>
      </trkpt>
      <trkpt lat="44.57876" lon="5.83058">
        <ele>1250.81</ele>
        <time>2015-11-23T14:44:49Z</time>
      </trkpt>
      <trkpt lat="44.5788" lon="5.83059">
        <ele>1252.74</ele>
        <time>2015-11-23T14:45:01Z</time>
      </trkpt>
      <trkpt lat="44.57889" lon="5.83064">
        <ele>1254.18</ele>
        <time>2015-11-23T14:45:15Z</time>
      </trkpt>
      <trkpt lat="44.57889" lon="5.83064">
        <ele>1253.7</ele>
        <time>2015-11-23T14:45:33Z</time>
      </trkpt>
      <trkpt lat="44.57893" lon="5.83065">
        <ele>1254.18</ele>
        <time>2015-11-23T14:45:48Z</time>
      </trkpt>
      <trkpt lat="44.57893" lon="5.83065">
        <ele>1256.1</ele>
        <time>2015-11-23T14:45:54Z</time>
      </trkpt>
      <trkpt lat="44.57898" lon="5.83067">
        <ele>1254.66</ele>
        <time>2015-11-23T14:45:57Z</time>
      </trkpt>
      <trkpt lat="44.57906" lon="5.83064">
        <ele>1255.62</ele>
        <time>2015-11-23T14:46:09Z</time>
      </trkpt>
      <trkpt lat="44.57912" lon="5.83064">
        <ele>1256.58</ele>
        <time>2015-11-23T14:46:19Z</time>
      </trkpt>
      <trkpt lat="44.57918" lon="5.8306">
        <ele>1257.06</ele>
        <time>2015-11-23T14:46:26Z</time>
      </trkpt>
      <trkpt lat="44.57929" lon="5.83056">
        <ele>1258.02</ele>
        <time>2015-11-23T14:46:40Z</time>
      </trkpt>
      <trkpt lat="44.5793" lon="5.83056">
        <ele>1258.5</ele>
        <time>2015-11-23T14:46:41Z</time>
      </trkpt>
      <trkpt lat="44.57936" lon="5.83051">
        <ele>1257.54</ele>
        <time>2015-11-23T14:46:49Z</time>
      </trkpt>
      <trkpt lat="44.57942" lon="5.83043">
        <ele>1256.58</ele>
        <time>2015-11-23T14:47:00Z</time>
      </trkpt>
      <trkpt lat="44.5795" lon="5.83035">
        <ele>1257.06</ele>
        <time>2015-11-23T14:47:12Z</time>
      </trkpt>
      <trkpt lat="44.57956" lon="5.83033">
        <ele>1257.06</ele>
        <time>2015-11-23T14:47:20Z</time>
      </trkpt>
      <trkpt lat="44.57961" lon="5.83038">
        <ele>1258.98</ele>
        <time>2015-11-23T14:47:33Z</time>
      </trkpt>
      <trkpt lat="44.57969" lon="5.83045">
        <ele>1260.43</ele>
        <time>2015-11-23T14:47:47Z</time>
      </trkpt>
      <trkpt lat="44.57973" lon="5.83044">
        <ele>1262.35</ele>
        <time>2015-11-23T14:48:00Z</time>
      </trkpt>
      <trkpt lat="44.57979" lon="5.83045">
        <ele>1263.31</ele>
        <time>2015-11-23T14:48:07Z</time>
      </trkpt>
      <trkpt lat="44.57994" lon="5.83046">
        <ele>1264.75</ele>
        <time>2015-11-23T14:48:22Z</time>
      </trkpt>
      <trkpt lat="44.57998" lon="5.83042">
        <ele>1262.35</ele>
        <time>2015-11-23T14:48:45Z</time>
      </trkpt>
      <trkpt lat="44.58008" lon="5.8303">
        <ele>1261.87</ele>
        <time>2015-11-23T14:48:58Z</time>
      </trkpt>
      <trkpt lat="44.5801" lon="5.83027">
        <ele>1260.91</ele>
        <time>2015-11-23T14:49:09Z</time>
      </trkpt>
      <trkpt lat="44.5801" lon="5.83025">
        <ele>1259.94</ele>
        <time>2015-11-23T14:49:27Z</time>
      </trkpt>
      <trkpt lat="44.58009" lon="5.83016">
        <ele>1259.46</ele>
        <time>2015-11-23T14:49:44Z</time>
      </trkpt>
      <trkpt lat="44.58015" lon="5.82999">
        <ele>1258.02</ele>
        <time>2015-11-23T14:49:57Z</time>
      </trkpt>
      <trkpt lat="44.58018" lon="5.82985">
        <ele>1259.94</ele>
        <time>2015-11-23T14:50:08Z</time>
      </trkpt>
      <trkpt lat="44.58015" lon="5.82978">
        <ele>1258.98</ele>
        <time>2015-11-23T14:50:20Z</time>
      </trkpt>
      <trkpt lat="44.58013" lon="5.82978">
        <ele>1258.98</ele>
        <time>2015-11-23T14:50:23Z</time>
      </trkpt>
      <trkpt lat="44.58" lon="5.82969">
        <ele>1257.06</ele>
        <time>2015-11-23T14:50:37Z</time>
      </trkpt>
      <trkpt lat="44.57994" lon="5.82966">
        <ele>1253.7</ele>
        <time>2015-11-23T14:50:48Z</time>
      </trkpt>
      <trkpt lat="44.57994" lon="5.82966">
        <ele>1257.06</ele>
        <time>2015-11-23T14:50:49Z</time>
      </trkpt>
      <trkpt lat="44.57984" lon="5.8296">
        <ele>1253.22</ele>
        <time>2015-11-23T14:51:00Z</time>
      </trkpt>
      <trkpt lat="44.57981" lon="5.82957">
        <ele>1256.58</ele>
        <time>2015-11-23T14:51:04Z</time>
      </trkpt>
      <trkpt lat="44.57981" lon="5.82957">
        <ele>1251.29</ele>
        <time>2015-11-23T14:51:05Z</time>
      </trkpt>
      <trkpt lat="44.57981" lon="5.82957">
        <ele>1255.14</ele>
        <time>2015-11-23T14:51:07Z</time>
      </trkpt>
      <trkpt lat="44.57977" lon="5.82948">
        <ele>1255.14</ele>
        <time>2015-11-23T14:51:17Z</time>
      </trkpt>
      <trkpt lat="44.57977" lon="5.82946">
        <ele>1253.7</ele>
        <time>2015-11-23T14:51:18Z</time>
      </trkpt>
      <trkpt lat="44.57976" lon="5.82944">
        <ele>1252.74</ele>
        <time>2015-11-23T14:51:20Z</time>
      </trkpt>
      <trkpt lat="44.57968" lon="5.82928">
        <ele>1251.29</ele>
        <time>2015-11-23T14:51:33Z</time>
      </trkpt>
      <trkpt lat="44.57965" lon="5.82924">
        <ele>1252.25</ele>
        <time>2015-11-23T14:51:36Z</time>
      </trkpt>
      <trkpt lat="44.57964" lon="5.82918">
        <ele>1249.85</ele>
        <time>2015-11-23T14:51:41Z</time>
      </trkpt>
      <trkpt lat="44.57957" lon="5.82906">
        <ele>1248.89</ele>
        <time>2015-11-23T14:51:51Z</time>
      </trkpt>
      <trkpt lat="44.5795" lon="5.8289">
        <ele>1246.97</ele>
        <time>2015-11-23T14:52:04Z</time>
      </trkpt>
      <trkpt lat="44.57946" lon="5.82881">
        <ele>1245.04</ele>
        <time>2015-11-23T14:52:17Z</time>
      </trkpt>
      <trkpt lat="44.57945" lon="5.82879">
        <ele>1246.49</ele>
        <time>2015-11-23T14:52:19Z</time>
      </trkpt>
      <trkpt lat="44.5794" lon="5.82869">
        <ele>1245.04</ele>
        <time>2015-11-23T14:52:30Z</time>
      </trkpt>
      <trkpt lat="44.57934" lon="5.82859">
        <ele>1244.08</ele>
        <time>2015-11-23T14:52:41Z</time>
      </trkpt>
      <trkpt lat="44.57933" lon="5.82858">
        <ele>1243.6</ele>
        <time>2015-11-23T14:52:42Z</time>
      </trkpt>
      <trkpt lat="44.5793" lon="5.82852">
        <ele>1243.12</ele>
        <time>2015-11-23T14:52:48Z</time>
      </trkpt>
      <trkpt lat="44.57929" lon="5.8285">
        <ele>1244.08</ele>
        <time>2015-11-23T14:52:50Z</time>
      </trkpt>
      <trkpt lat="44.5792" lon="5.82834">
        <ele>1242.64</ele>
        <time>2015-11-23T14:53:04Z</time>
      </trkpt>
      <trkpt lat="44.57914" lon="5.82819">
        <ele>1240.24</ele>
        <time>2015-11-23T14:53:17Z</time>
      </trkpt>
      <trkpt lat="44.57911" lon="5.82804">
        <ele>1239.76</ele>
        <time>2015-11-23T14:53:28Z</time>
      </trkpt>
      <trkpt lat="44.57909" lon="5.82783">
        <ele>1238.8</ele>
        <time>2015-11-23T14:53:41Z</time>
      </trkpt>
      <trkpt lat="44.57909" lon="5.82764">
        <ele>1236.39</ele>
        <time>2015-11-23T14:53:54Z</time>
      </trkpt>
      <trkpt lat="44.57914" lon="5.82747">
        <ele>1236.39</ele>
        <time>2015-11-23T14:54:08Z</time>
      </trkpt>
      <trkpt lat="44.57914" lon="5.82745">
        <ele>1234.95</ele>
        <time>2015-11-23T14:54:09Z</time>
      </trkpt>
      <trkpt lat="44.57916" lon="5.82732">
        <ele>1234.47</ele>
        <time>2015-11-23T14:54:18Z</time>
      </trkpt>
      <trkpt lat="44.57914" lon="5.82709">
        <ele>1233.03</ele>
        <time>2015-11-23T14:54:35Z</time>
      </trkpt>
      <trkpt lat="44.57912" lon="5.82693">
        <ele>1231.59</ele>
        <time>2015-11-23T14:54:48Z</time>
      </trkpt>
      <trkpt lat="44.57909" lon="5.8268">
        <ele>1230.62</ele>
        <time>2015-11-23T14:55:01Z</time>
      </trkpt>
      <trkpt lat="44.57908" lon="5.82676">
        <ele>1231.59</ele>
        <time>2015-11-23T14:55:21Z</time>
      </trkpt>
      <trkpt lat="44.579" lon="5.82664">
        <ele>1229.66</ele>
        <time>2015-11-23T14:55:33Z</time>
      </trkpt>
      <trkpt lat="44.57894" lon="5.82657">
        <ele>1229.66</ele>
        <time>2015-11-23T14:55:44Z</time>
      </trkpt>
    </trkseg>
  </trk>
</gpx>